Time,TemperatureF,DewpointF,PressureIn,WindDirection,WindDirectionDegrees,WindSpeedMPH,WindSpeedGustMPH,Humidity,HourlyPrecipIn,Conditions,Clouds,dailyrainin,SoftwareType,DateUTC
2013-01-26 00:00:00,26.5,25.0,30.23,ESE,123,0.0,0.0,94,0.00,,---,0.00,VWS V14.01,2013-01-26 06:00:00,
2013-01-26 00:01:00,26.6,25.1,30.23,ESE,123,0.0,0.0,94,0.00,,---,0.00,VWS V14.01,2013-01-26 06:01:00,
2013-01-26 00:02:00,26.7,25.2,30.23,ESE,123,0.0,0.0,94,0.00,,---,0.00,VWS V14.01,2013-01-26 06:02:00,
2013-01-26 00:03:00,26.7,25.2,30.23,ESE,123,0.0,0.0,94,0.00,,---,0.00,VWS V14.01,2013-01-26 06:03:00,
2013-01-26 00:06:00,26.5,25.0,30.22,ESE,123,0.0,0.0,94,0.00,,---,0.00,VWS V14.01,2013-01-26 06:06:00,
2013-01-26 00:07:00,26.5,25.0,30.22,ESE,123,0.0,0.0,94,0.00,,---,0.00,VWS V14.01,2013-01-26 06:07:00,
2013-01-26 00:08:00,26.5,25.0,30.22,ESE,123,0.0,0.0,94,0.00,,---,0.00,VWS V14.01,2013-01-26 06:08:00,
2013-01-26 00:11:00,26.6,25.1,30.22,ESE,123,0.0,0.0,94,0.00,,---,0.00,VWS V14.01,2013-01-26 06:11:00,
2013-01-26 00:12:00,26.7,25.2,30.22,ESE,123,0.0,0.0,94,0.00,,---,0.00,VWS V14.01,2013-01-26 06:12:00,
2013-01-26 00:13:00,26.7,25.2,30.22,ESE,123,0.0,0.0,94,0.00,,---,0.00,VWS V14.01,2013-01-26 06:13:00,
2013-01-26 00:17:00,26.6,25.1,30.22,ESE,123,0.0,0.0,94,0.00,,---,0.00,VWS V14.01,2013-01-26 06:17:00,
2013-01-26 00:18:00,26.6,25.1,30.22,ESE,123,0.0,0.0,94,0.00,,---,0.00,VWS V14.01,2013-01-26 06:18:00,
2013-01-26 00:22:00,26.1,24.6,30.22,ESE,123,0.0,0.0,94,0.00,,---,0.00,VWS V14.01,2013-01-26 06:22:00,
2013-01-26 00:23:00,26.1,24.6,30.22,ESE,123,0.0,0.0,94,0.00,,---,0.00,VWS V14.01,2013-01-26 06:23:00,
2013-01-26 00:27:00,25.5,24.0,30.22,ESE,123,0.0,0.0,94,0.00,,---,0.00,VWS V14.01,2013-01-26 06:27:00,
2013-01-26 00:28:00,25.5,24.0,30.22,ESE,123,0.0,0.0,94,0.00,,---,0.00,VWS V14.01,2013-01-26 06:28:00,
2013-01-26 00:30:00,25.5,24.0,30.22,ESE,123,0.0,0.0,94,0.00,,---,0.00,VWS V14.01,2013-01-26 06:30:00,
2013-01-26 00:32:00,25.2,23.7,30.22,ESE,123,0.0,0.0,94,0.00,,---,0.00,VWS V14.01,2013-01-26 06:32:00,
2013-01-26 00:33:00,25.2,23.7,30.22,ESE,123,0.0,0.0,94,0.00,,---,0.00,VWS V14.01,2013-01-26 06:33:00,
2013-01-26 00:38:00,25.3,23.8,30.22,ESE,123,0.0,0.0,94,0.00,,---,0.00,VWS V14.01,2013-01-26 06:38:00,
2013-01-26 00:43:00,25.6,24.1,30.22,ESE,123,0.0,0.0,94,0.00,,---,0.00,VWS V14.01,2013-01-26 06:43:00,
2013-01-26 00:48:00,25.4,23.9,30.22,ESE,123,0.0,0.0,94,0.00,,---,0.00,VWS V14.01,2013-01-26 06:48:00,
2013-01-26 00:49:00,25.4,23.9,30.22,ESE,123,0.0,0.0,94,0.00,,---,0.00,VWS V14.01,2013-01-26 06:49:00,
2013-01-26 00:53:00,25.6,24.1,30.22,ESE,123,0.0,0.0,94,0.00,,---,0.00,VWS V14.01,2013-01-26 06:53:00,
2013-01-26 00:54:00,25.6,24.1,30.22,ESE,123,0.0,0.0,94,0.00,,---,0.00,VWS V14.01,2013-01-26 06:54:00,
2013-01-26 00:58:00,25.3,23.8,30.22,ESE,123,0.0,0.0,94,0.00,,---,0.00,VWS V14.01,2013-01-26 06:58:00,
2013-01-26 00:59:00,25.3,23.8,30.21,ESE,123,0.0,0.0,94,0.00,,---,0.00,VWS V14.01,2013-01-26 06:59:00,
2013-01-26 01:00:00,25.4,23.9,30.22,ESE,123,0.0,0.0,94,0.00,,---,0.00,VWS V14.01,2013-01-26 07:00:00,
2013-01-26 01:03:00,25.0,23.5,30.22,ESE,123,0.0,0.0,94,0.00,,---,0.00,VWS V14.01,2013-01-26 07:03:00,
2013-01-26 01:04:00,25.0,23.5,30.22,ESE,123,0.0,0.0,94,0.00,,---,0.00,VWS V14.01,2013-01-26 07:04:00,
2013-01-26 01:09:00,25.0,23.5,30.22,ESE,123,0.0,0.0,94,0.00,,---,0.00,VWS V14.01,2013-01-26 07:09:00,
2013-01-26 01:14:00,25.0,23.5,30.22,ESE,123,0.0,0.0,94,0.00,,---,0.00,VWS V14.01,2013-01-26 07:14:00,
2013-01-26 01:19:00,25.3,24.1,30.22,ESE,123,0.0,0.0,95,0.00,,---,0.00,VWS V14.01,2013-01-26 07:19:00,
2013-01-26 01:24:00,24.8,23.3,30.22,ESE,123,0.0,0.0,94,0.00,,---,0.00,VWS V14.01,2013-01-26 07:24:00,
2013-01-26 01:25:00,24.7,23.2,30.22,ESE,123,0.0,0.0,94,0.00,,---,0.00,VWS V14.01,2013-01-26 07:25:00,
2013-01-26 01:29:00,24.7,23.2,30.22,ESE,123,0.0,0.0,94,0.00,,---,0.00,VWS V14.01,2013-01-26 07:29:00,
2013-01-26 01:30:00,24.7,23.2,30.22,ESE,123,0.0,0.0,94,0.00,,---,0.00,VWS V14.01,2013-01-26 07:30:00,
2013-01-26 01:34:00,24.9,23.4,30.22,ESE,123,0.0,0.0,94,0.00,,---,0.00,VWS V14.01,2013-01-26 07:34:00,
2013-01-26 01:39:00,25.0,23.5,30.22,ESE,123,0.0,0.0,94,0.00,,---,0.00,VWS V14.01,2013-01-26 07:39:00,
2013-01-26 01:44:00,25.1,23.9,30.22,ESE,123,0.0,0.0,95,0.00,,---,0.00,VWS V14.01,2013-01-26 07:44:00,
2013-01-26 01:45:00,25.1,23.9,30.22,ESE,123,0.0,0.0,95,0.00,,---,0.00,VWS V14.01,2013-01-26 07:45:00,
2013-01-26 01:49:00,25.3,24.1,30.22,ESE,123,0.0,0.0,95,0.00,,---,0.00,VWS V14.01,2013-01-26 07:49:00,
2013-01-26 01:50:00,25.3,24.1,30.22,ESE,123,0.0,0.0,95,0.00,,---,0.00,VWS V14.01,2013-01-26 07:50:00,
2013-01-26 01:54:00,25.3,23.8,30.22,ESE,123,0.0,0.0,94,0.00,,---,0.00,VWS V14.01,2013-01-26 07:54:00,
2013-01-26 01:55:00,25.3,24.1,30.23,ESE,123,0.0,0.0,95,0.00,,---,0.00,VWS V14.01,2013-01-26 07:55:00,
2013-01-26 01:59:00,25.0,23.5,30.23,ESE,123,0.0,0.0,94,0.00,,---,0.00,VWS V14.01,2013-01-26 07:59:00,
2013-01-26 02:00:00,25.0,23.5,30.23,ESE,123,0.0,0.0,94,0.00,,---,0.00,VWS V14.01,2013-01-26 08:00:00,
2013-01-26 02:04:00,24.8,23.3,30.23,ESE,123,0.0,0.0,94,0.00,,---,0.00,VWS V14.01,2013-01-26 08:04:00,
2013-01-26 02:05:00,24.8,23.3,30.23,ESE,123,0.0,0.0,94,0.00,,---,0.00,VWS V14.01,2013-01-26 08:05:00,
2013-01-26 02:10:00,24.7,23.2,30.23,ESE,123,0.0,0.0,94,0.00,,---,0.00,VWS V14.01,2013-01-26 08:10:00,
2013-01-26 02:11:00,24.7,23.2,30.23,ESE,123,0.0,0.0,94,0.00,,---,0.00,VWS V14.01,2013-01-26 08:11:00,
2013-01-26 02:15:00,24.6,23.1,30.24,ESE,123,0.0,0.0,94,0.00,,---,0.00,VWS V14.01,2013-01-26 08:15:00,
2013-01-26 02:16:00,24.6,23.1,30.24,ESE,123,0.0,0.0,94,0.00,,---,0.00,VWS V14.01,2013-01-26 08:16:00,
2013-01-26 02:20:00,24.3,22.8,30.24,ESE,123,0.0,0.0,94,0.00,,---,0.00,VWS V14.01,2013-01-26 08:20:00,
2013-01-26 02:21:00,24.2,22.7,30.24,ESE,123,0.0,0.0,94,0.00,,---,0.00,VWS V14.01,2013-01-26 08:21:00,
2013-01-26 02:25:00,24.3,22.8,30.24,ESE,123,0.0,0.0,94,0.00,,---,0.00,VWS V14.01,2013-01-26 08:25:00,
2013-01-26 02:26:00,24.4,22.9,30.24,ESE,123,0.0,0.0,94,0.00,,---,0.00,VWS V14.01,2013-01-26 08:26:00,
2013-01-26 02:27:00,24.4,23.2,30.24,ESE,123,0.0,0.0,95,0.00,,---,0.00,VWS V14.01,2013-01-26 08:27:00,
2013-01-26 02:30:00,24.4,23.2,30.24,ESE,123,0.0,0.0,95,0.00,,---,0.00,VWS V14.01,2013-01-26 08:30:00,
2013-01-26 02:31:00,24.4,23.2,30.24,ESE,123,0.0,0.0,95,0.00,,---,0.00,VWS V14.01,2013-01-26 08:31:00,
2013-01-26 02:32:00,24.4,23.2,30.24,ESE,123,0.0,0.0,95,0.00,,---,0.00,VWS V14.01,2013-01-26 08:32:00,
2013-01-26 02:35:00,24.5,23.3,30.24,ESE,123,0.0,0.0,95,0.00,,---,0.00,VWS V14.01,2013-01-26 08:35:00,
2013-01-26 02:36:00,24.6,23.4,30.24,ESE,123,0.0,0.0,95,0.00,,---,0.00,VWS V14.01,2013-01-26 08:36:00,
2013-01-26 02:37:00,24.6,23.4,30.24,ESE,123,0.0,0.0,95,0.00,,---,0.00,VWS V14.01,2013-01-26 08:37:00,
2013-01-26 02:40:00,24.5,23.0,30.24,ESE,123,0.0,0.0,94,0.00,,---,0.00,VWS V14.01,2013-01-26 08:40:00,
2013-01-26 02:41:00,24.4,22.9,30.24,ESE,123,0.0,0.0,94,0.00,,---,0.00,VWS V14.01,2013-01-26 08:41:00,
2013-01-26 02:42:00,24.4,22.9,30.24,ESE,123,0.0,0.0,94,0.00,,---,0.00,VWS V14.01,2013-01-26 08:42:00,
2013-01-26 02:45:00,24.3,22.8,30.24,ESE,123,0.0,0.0,94,0.00,,---,0.00,VWS V14.01,2013-01-26 08:45:00,
2013-01-26 02:46:00,24.3,22.8,30.24,ESE,123,0.0,0.0,94,0.00,,---,0.00,VWS V14.01,2013-01-26 08:46:00,
2013-01-26 02:47:00,24.3,22.8,30.24,ESE,123,0.0,0.0,94,0.00,,---,0.00,VWS V14.01,2013-01-26 08:47:00,
2013-01-26 02:50:00,24.5,23.3,30.24,ESE,123,0.0,0.0,95,0.00,,---,0.00,VWS V14.01,2013-01-26 08:50:00,
2013-01-26 02:51:00,24.6,23.4,30.24,ESE,123,0.0,0.0,95,0.00,,---,0.00,VWS V14.01,2013-01-26 08:51:00,
2013-01-26 02:52:00,24.7,23.5,30.24,ESE,123,0.0,0.0,95,0.00,,---,0.00,VWS V14.01,2013-01-26 08:52:00,
2013-01-26 02:55:00,24.8,23.6,30.24,ESE,123,0.0,0.0,95,0.00,,---,0.00,VWS V14.01,2013-01-26 08:55:00,
2013-01-26 02:56:00,24.8,23.6,30.24,ESE,123,0.0,0.0,95,0.00,,---,0.00,VWS V14.01,2013-01-26 08:56:00,
2013-01-26 02:57:00,24.8,23.3,30.24,ESE,123,0.0,0.0,94,0.00,,---,0.00,VWS V14.01,2013-01-26 08:57:00,
2013-01-26 03:00:00,24.8,23.3,30.24,ESE,123,0.0,0.0,94,0.00,,---,0.00,VWS V14.01,2013-01-26 09:00:00,
2013-01-26 03:01:00,24.9,23.4,30.24,ESE,123,0.0,0.0,94,0.00,,---,0.00,VWS V14.01,2013-01-26 09:01:00,
2013-01-26 03:02:00,24.9,23.4,30.24,ESE,123,0.0,0.0,94,0.00,,---,0.00,VWS V14.01,2013-01-26 09:02:00,
2013-01-26 03:03:00,24.8,23.3,30.24,ESE,123,0.0,0.0,94,0.00,,---,0.00,VWS V14.01,2013-01-26 09:03:00,
2013-01-26 03:06:00,24.7,23.2,30.24,ESE,123,0.0,0.0,94,0.00,,---,0.00,VWS V14.01,2013-01-26 09:06:00,
2013-01-26 03:07:00,24.6,23.1,30.24,ESE,123,0.0,0.0,94,0.00,,---,0.00,VWS V14.01,2013-01-26 09:07:00,
2013-01-26 03:08:00,24.7,23.2,30.24,ESE,123,0.0,0.0,94,0.00,,---,0.00,VWS V14.01,2013-01-26 09:08:00,
2013-01-26 03:11:00,24.8,23.3,30.24,ESE,123,0.0,0.0,94,0.00,,---,0.00,VWS V14.01,2013-01-26 09:11:00,
2013-01-26 03:12:00,24.8,23.3,30.24,ESE,123,0.0,0.0,94,0.00,,---,0.00,VWS V14.01,2013-01-26 09:12:00,
2013-01-26 03:13:00,24.9,23.4,30.24,ESE,123,0.0,0.0,94,0.00,,---,0.00,VWS V14.01,2013-01-26 09:13:00,
2013-01-26 03:16:00,25.0,23.5,30.25,ESE,123,0.0,0.0,94,0.00,,---,0.00,VWS V14.01,2013-01-26 09:16:00,
2013-01-26 03:17:00,25.0,23.5,30.25,ESE,123,0.0,0.0,94,0.00,,---,0.00,VWS V14.01,2013-01-26 09:17:00,
2013-01-26 03:18:00,25.0,23.5,30.25,ESE,123,0.0,0.0,94,0.00,,---,0.00,VWS V14.01,2013-01-26 09:18:00,
2013-01-26 03:21:00,24.9,23.4,30.24,ESE,123,0.0,0.0,94,0.00,,---,0.00,VWS V14.01,2013-01-26 09:21:00,
2013-01-26 03:22:00,24.9,23.4,30.25,ESE,123,0.0,0.0,94,0.00,,---,0.00,VWS V14.01,2013-01-26 09:22:00,
2013-01-26 03:24:00,24.9,23.4,30.25,ESE,123,0.0,0.0,94,0.00,,---,0.00,VWS V14.01,2013-01-26 09:24:00,
2013-01-26 03:26:00,24.9,23.4,30.25,ESE,123,0.0,0.0,94,0.00,,---,0.00,VWS V14.01,2013-01-26 09:26:00,
2013-01-26 03:27:00,25.1,23.6,30.24,ESE,123,0.0,0.0,94,0.00,,---,0.00,VWS V14.01,2013-01-26 09:27:00,
2013-01-26 03:29:00,25.1,23.9,30.24,ESE,123,0.0,0.0,95,0.00,,---,0.00,VWS V14.01,2013-01-26 09:29:00,
2013-01-26 03:30:00,25.1,23.6,30.24,ESE,123,0.0,0.0,94,0.00,,---,0.00,VWS V14.01,2013-01-26 09:30:00,
2013-01-26 03:31:00,25.2,24.0,30.24,ESE,123,0.0,0.0,95,0.00,,---,0.00,VWS V14.01,2013-01-26 09:31:00,
2013-01-26 03:32:00,25.2,24.0,30.24,ESE,123,0.0,0.0,95,0.00,,---,0.00,VWS V14.01,2013-01-26 09:32:00,
2013-01-26 03:34:00,25.2,24.0,30.24,ESE,123,0.0,0.0,95,0.00,,---,0.00,VWS V14.01,2013-01-26 09:34:00,
2013-01-26 03:37:00,25.0,23.5,30.24,ESE,123,0.0,0.0,94,0.00,,---,0.00,VWS V14.01,2013-01-26 09:37:00,
2013-01-26 03:39:00,24.9,23.4,30.24,ESE,123,0.0,0.0,94,0.00,,---,0.00,VWS V14.01,2013-01-26 09:39:00,
2013-01-26 03:42:00,25.0,23.5,30.24,ESE,123,0.0,0.0,94,0.00,,---,0.00,VWS V14.01,2013-01-26 09:42:00,
2013-01-26 03:44:00,25.2,24.0,30.24,ESE,123,0.0,0.0,95,0.00,,---,0.00,VWS V14.01,2013-01-26 09:44:00,
2013-01-26 03:47:00,25.3,24.1,30.24,ESE,123,0.0,0.0,95,0.00,,---,0.00,VWS V14.01,2013-01-26 09:47:00,
2013-01-26 03:48:00,25.3,24.1,30.24,ESE,123,0.0,0.0,95,0.00,,---,0.00,VWS V14.01,2013-01-26 09:48:00,
2013-01-26 03:49:00,25.3,24.1,30.24,ESE,123,0.0,0.0,95,0.00,,---,0.00,VWS V14.01,2013-01-26 09:49:00,
2013-01-26 03:52:00,25.3,23.8,30.25,ESE,123,0.0,0.0,94,0.00,,---,0.00,VWS V14.01,2013-01-26 09:52:00,
2013-01-26 03:53:00,25.3,23.8,30.24,ESE,123,0.0,0.0,94,0.00,,---,0.00,VWS V14.01,2013-01-26 09:53:00,
2013-01-26 03:54:00,25.4,23.9,30.25,ESE,123,0.0,0.0,94,0.00,,---,0.00,VWS V14.01,2013-01-26 09:54:00,
2013-01-26 03:57:00,25.4,23.9,30.25,ESE,123,0.0,0.0,94,0.00,,---,0.00,VWS V14.01,2013-01-26 09:57:00,
2013-01-26 03:58:00,25.5,24.0,30.25,ESE,123,0.0,0.0,94,0.00,,---,0.00,VWS V14.01,2013-01-26 09:58:00,
2013-01-26 04:00:00,25.6,24.1,30.25,ESE,123,0.0,0.0,94,0.00,,---,0.00,VWS V14.01,2013-01-26 10:00:00,
2013-01-26 04:02:00,25.8,24.6,30.25,ESE,123,0.0,0.0,95,0.00,,---,0.00,VWS V14.01,2013-01-26 10:02:00,
2013-01-26 04:03:00,25.8,24.6,30.25,ESE,123,0.0,0.0,95,0.00,,---,0.00,VWS V14.01,2013-01-26 10:03:00,
2013-01-26 04:05:00,25.8,24.6,30.25,ESE,123,0.0,0.0,95,0.00,,---,0.00,VWS V14.01,2013-01-26 10:05:00,
2013-01-26 04:07:00,25.9,24.7,30.25,ESE,123,0.0,0.0,95,0.00,,---,0.00,VWS V14.01,2013-01-26 10:07:00,
2013-01-26 04:08:00,25.9,24.7,30.25,ESE,123,0.0,0.0,95,0.00,,---,0.00,VWS V14.01,2013-01-26 10:08:00,
2013-01-26 04:10:00,25.9,24.4,30.25,ESE,123,0.0,0.0,94,0.00,,---,0.00,VWS V14.01,2013-01-26 10:10:00,
2013-01-26 04:12:00,25.8,24.3,30.25,ESE,123,0.0,0.0,94,0.00,,---,0.00,VWS V14.01,2013-01-26 10:12:00,
2013-01-26 04:13:00,25.8,24.3,30.25,ESE,123,0.0,0.0,94,0.00,,---,0.00,VWS V14.01,2013-01-26 10:13:00,
2013-01-26 04:14:00,25.8,24.3,30.25,ESE,123,0.0,0.0,94,0.00,,---,0.00,VWS V14.01,2013-01-26 10:14:00,
2013-01-26 04:15:00,25.6,24.1,30.25,ESE,123,0.0,0.0,94,0.00,,---,0.00,VWS V14.01,2013-01-26 10:15:00,
2013-01-26 04:18:00,25.6,24.1,30.25,ESE,123,0.0,0.0,94,0.00,,---,0.00,VWS V14.01,2013-01-26 10:18:00,
2013-01-26 04:19:00,25.6,24.1,30.25,ESE,123,0.0,0.0,94,0.00,,---,0.00,VWS V14.01,2013-01-26 10:19:00,
2013-01-26 04:20:00,25.6,24.1,30.25,ESE,123,0.0,0.0,94,0.00,,---,0.00,VWS V14.01,2013-01-26 10:20:00,
2013-01-26 04:23:00,25.7,24.2,30.25,ESE,123,0.0,0.0,94,0.00,,---,0.00,VWS V14.01,2013-01-26 10:23:00,
2013-01-26 04:24:00,25.8,24.3,30.25,ESE,123,0.0,0.0,94,0.00,,---,0.00,VWS V14.01,2013-01-26 10:24:00,
2013-01-26 04:25:00,25.8,24.3,30.26,ESE,123,0.0,0.0,94,0.00,,---,0.00,VWS V14.01,2013-01-26 10:25:00,
2013-01-26 04:28:00,25.9,24.4,30.26,ESE,123,0.0,0.0,94,0.00,,---,0.00,VWS V14.01,2013-01-26 10:28:00,
2013-01-26 04:29:00,26.0,24.5,30.26,ESE,123,0.0,0.0,94,0.00,,---,0.00,VWS V14.01,2013-01-26 10:29:00,
2013-01-26 04:30:00,26.0,24.5,30.25,ESE,123,0.0,0.0,94,0.00,,---,0.00,VWS V14.01,2013-01-26 10:30:00,
2013-01-26 04:31:00,26.1,24.6,30.25,ESE,123,0.0,0.0,94,0.00,,---,0.00,VWS V14.01,2013-01-26 10:31:00,
2013-01-26 04:33:00,26.1,24.9,30.25,ESE,123,0.0,0.0,95,0.00,,---,0.00,VWS V14.01,2013-01-26 10:33:00,
2013-01-26 04:34:00,26.1,24.9,30.26,ESE,123,0.0,0.0,95,0.00,,---,0.00,VWS V14.01,2013-01-26 10:34:00,
2013-01-26 04:35:00,26.1,24.6,30.26,ESE,123,0.0,0.0,94,0.00,,---,0.00,VWS V14.01,2013-01-26 10:35:00,
2013-01-26 04:36:00,26.1,24.6,30.26,ESE,123,0.0,0.0,94,0.00,,---,0.00,VWS V14.01,2013-01-26 10:36:00,
2013-01-26 04:39:00,26.0,24.5,30.26,ESE,123,0.0,0.0,94,0.00,,---,0.00,VWS V14.01,2013-01-26 10:39:00,
2013-01-26 04:40:00,26.0,24.5,30.26,ESE,123,0.0,0.0,94,0.00,,---,0.00,VWS V14.01,2013-01-26 10:40:00,
2013-01-26 04:41:00,26.0,24.5,30.26,ESE,123,0.0,0.0,94,0.00,,---,0.00,VWS V14.01,2013-01-26 10:41:00,
2013-01-26 04:44:00,26.0,24.5,30.26,ESE,123,0.0,0.0,94,0.00,,---,0.00,VWS V14.01,2013-01-26 10:44:00,
2013-01-26 04:45:00,25.9,24.4,30.26,ESE,123,0.0,0.0,94,0.00,,---,0.00,VWS V14.01,2013-01-26 10:45:00,
2013-01-26 04:47:00,25.9,24.4,30.26,ESE,123,0.0,0.0,94,0.00,,---,0.00,VWS V14.01,2013-01-26 10:47:00,
2013-01-26 04:49:00,25.9,24.4,30.26,ESE,123,0.0,0.0,94,0.00,,---,0.00,VWS V14.01,2013-01-26 10:49:00,
2013-01-26 04:50:00,26.0,24.5,30.26,ESE,123,0.0,0.0,94,0.00,,---,0.00,VWS V14.01,2013-01-26 10:50:00,
2013-01-26 04:52:00,26.0,24.5,30.26,ESE,123,0.0,0.0,94,0.00,,---,0.00,VWS V14.01,2013-01-26 10:52:00,
2013-01-26 04:54:00,26.0,24.5,30.26,ESE,123,0.0,0.0,94,0.00,,---,0.00,VWS V14.01,2013-01-26 10:54:00,
2013-01-26 04:55:00,26.0,24.5,30.26,ESE,123,0.0,0.0,94,0.00,,---,0.00,VWS V14.01,2013-01-26 10:55:00,
2013-01-26 04:57:00,26.0,24.5,30.26,ESE,123,0.0,0.0,94,0.00,,---,0.00,VWS V14.01,2013-01-26 10:57:00,
2013-01-26 05:00:00,26.0,24.5,30.26,ESE,123,0.0,0.0,94,0.00,,---,0.00,VWS V14.01,2013-01-26 11:00:00,
2013-01-26 05:01:00,26.0,24.5,30.26,ESE,123,0.0,0.0,94,0.00,,---,0.00,VWS V14.01,2013-01-26 11:01:00,
2013-01-26 05:02:00,26.0,24.5,30.26,ESE,123,0.0,0.0,94,0.00,,---,0.00,VWS V14.01,2013-01-26 11:02:00,
2013-01-26 05:05:00,25.9,24.4,30.26,ESE,123,0.0,0.0,94,0.00,,---,0.00,VWS V14.01,2013-01-26 11:05:00,
2013-01-26 05:06:00,25.8,24.3,30.26,ESE,123,0.0,0.0,94,0.00,,---,0.00,VWS V14.01,2013-01-26 11:06:00,
2013-01-26 05:07:00,25.8,24.3,30.26,ESE,123,0.0,0.0,94,0.00,,---,0.00,VWS V14.01,2013-01-26 11:07:00,
2013-01-26 05:10:00,25.8,24.3,30.26,ESE,123,0.0,0.0,94,0.00,,---,0.00,VWS V14.01,2013-01-26 11:10:00,
2013-01-26 05:11:00,25.8,24.3,30.26,ESE,123,0.0,0.0,94,0.00,,---,0.00,VWS V14.01,2013-01-26 11:11:00,
2013-01-26 05:12:00,25.8,24.3,30.26,ESE,123,0.0,0.0,94,0.00,,---,0.00,VWS V14.01,2013-01-26 11:12:00,
2013-01-26 05:15:00,25.7,24.2,30.26,ESE,123,0.0,0.0,94,0.00,,---,0.00,VWS V14.01,2013-01-26 11:15:00,
2013-01-26 05:16:00,25.7,24.2,30.26,ESE,123,0.0,0.0,94,0.00,,---,0.00,VWS V14.01,2013-01-26 11:16:00,
2013-01-26 05:17:00,25.7,24.2,30.26,ESE,123,0.0,0.0,94,0.00,,---,0.00,VWS V14.01,2013-01-26 11:17:00,
2013-01-26 05:20:00,25.6,24.1,30.27,ESE,123,0.0,0.0,94,0.00,,---,0.00,VWS V14.01,2013-01-26 11:20:00,
2013-01-26 05:21:00,25.6,24.1,30.27,ESE,123,0.0,0.0,94,0.00,,---,0.00,VWS V14.01,2013-01-26 11:21:00,
2013-01-26 05:22:00,25.6,24.1,30.27,ESE,123,0.0,0.0,94,0.00,,---,0.00,VWS V14.01,2013-01-26 11:22:00,
2013-01-26 05:25:00,25.6,24.1,30.27,ESE,123,0.0,0.0,94,0.00,,---,0.00,VWS V14.01,2013-01-26 11:25:00,
2013-01-26 05:26:00,25.5,24.0,30.27,ESE,123,0.0,0.0,94,0.00,,---,0.00,VWS V14.01,2013-01-26 11:26:00,
2013-01-26 05:27:00,25.4,23.9,30.27,ESE,123,0.0,0.0,94,0.00,,---,0.00,VWS V14.01,2013-01-26 11:27:00,
2013-01-26 05:30:00,25.4,23.9,30.27,ESE,123,0.0,0.0,94,0.00,,---,0.00,VWS V14.01,2013-01-26 11:30:00,
2013-01-26 05:31:00,25.4,23.9,30.27,ESE,123,0.0,0.0,94,0.00,,---,0.00,VWS V14.01,2013-01-26 11:31:00,
2013-01-26 05:32:00,25.4,23.9,30.27,ESE,123,0.0,0.0,94,0.00,,---,0.00,VWS V14.01,2013-01-26 11:32:00,
2013-01-26 05:35:00,25.5,24.0,30.27,ESE,123,0.0,0.0,94,0.00,,---,0.00,VWS V14.01,2013-01-26 11:35:00,
2013-01-26 05:36:00,25.5,24.0,30.27,ESE,123,0.0,0.0,94,0.00,,---,0.00,VWS V14.01,2013-01-26 11:36:00,
2013-01-26 05:37:00,25.5,24.0,30.27,ESE,123,0.0,0.0,94,0.00,,---,0.00,VWS V14.01,2013-01-26 11:37:00,
2013-01-26 05:38:00,25.5,24.0,30.27,ESE,123,0.0,0.0,94,0.00,,---,0.00,VWS V14.01,2013-01-26 11:38:00,
2013-01-26 05:40:00,25.4,23.9,30.27,ESE,123,0.0,0.0,94,0.00,,---,0.00,VWS V14.01,2013-01-26 11:40:00,
2013-01-26 05:41:00,25.4,23.9,30.27,ESE,123,0.0,0.0,94,0.00,,---,0.00,VWS V14.01,2013-01-26 11:41:00,
2013-01-26 05:42:00,25.4,23.9,30.27,ESE,123,0.0,0.0,94,0.00,,---,0.00,VWS V14.01,2013-01-26 11:42:00,
2013-01-26 05:43:00,25.3,23.8,30.27,ESE,123,0.0,0.0,94,0.00,,---,0.00,VWS V14.01,2013-01-26 11:43:00,
2013-01-26 05:45:00,25.4,23.9,30.27,ESE,123,0.0,0.0,94,0.00,,---,0.00,VWS V14.01,2013-01-26 11:45:00,
2013-01-26 05:47:00,25.4,23.9,30.27,ESE,123,0.0,0.0,94,0.00,,---,0.00,VWS V14.01,2013-01-26 11:47:00,
2013-01-26 05:48:00,25.3,23.8,30.27,ESE,123,0.0,0.0,94,0.00,,---,0.00,VWS V14.01,2013-01-26 11:48:00,
2013-01-26 05:51:00,25.1,23.6,30.27,ESE,123,0.0,0.0,94,0.00,,---,0.00,VWS V14.01,2013-01-26 11:51:00,
2013-01-26 05:52:00,25.1,23.6,30.28,ESE,123,0.0,0.0,94,0.00,,---,0.00,VWS V14.01,2013-01-26 11:52:00,
2013-01-26 05:53:00,25.0,23.5,30.27,ESE,123,0.0,0.0,94,0.00,,---,0.00,VWS V14.01,2013-01-26 11:53:00,
2013-01-26 05:54:00,24.9,23.4,30.27,ESE,123,0.0,0.0,94,0.00,,---,0.00,VWS V14.01,2013-01-26 11:54:00,
2013-01-26 05:56:00,24.9,23.4,30.27,ESE,123,0.0,0.0,94,0.00,,---,0.00,VWS V14.01,2013-01-26 11:56:00,
2013-01-26 05:57:00,24.9,23.4,30.27,ESE,123,0.0,0.0,94,0.00,,---,0.00,VWS V14.01,2013-01-26 11:57:00,
2013-01-26 05:58:00,24.9,23.4,30.27,ESE,123,0.0,0.0,94,0.00,,---,0.00,VWS V14.01,2013-01-26 11:58:00,
2013-01-26 05:59:00,25.0,23.5,30.27,ESE,123,0.0,0.0,94,0.00,,---,0.00,VWS V14.01,2013-01-26 11:59:00,
2013-01-26 06:00:00,24.9,23.4,30.27,ESE,123,0.0,0.0,94,0.00,,---,0.00,VWS V14.01,2013-01-26 12:00:00,
2013-01-26 06:01:00,25.0,23.5,30.28,ESE,123,0.0,0.0,94,0.00,,---,0.00,VWS V14.01,2013-01-26 12:01:00,
2013-01-26 06:03:00,25.1,23.6,30.28,ESE,123,0.0,0.0,94,0.00,,---,0.00,VWS V14.01,2013-01-26 12:03:00,
2013-01-26 06:04:00,25.1,23.6,30.28,ESE,123,0.0,0.0,94,0.00,,---,0.00,VWS V14.01,2013-01-26 12:04:00,
2013-01-26 06:06:00,25.2,23.7,30.27,ESE,123,0.0,0.0,94,0.00,,---,0.00,VWS V14.01,2013-01-26 12:06:00,
2013-01-26 06:08:00,25.1,23.6,30.27,ESE,123,0.0,0.0,94,0.00,,---,0.00,VWS V14.01,2013-01-26 12:08:00,
2013-01-26 06:09:00,25.1,23.6,30.27,ESE,123,0.0,0.0,94,0.00,,---,0.00,VWS V14.01,2013-01-26 12:09:00,
2013-01-26 06:11:00,25.1,23.6,30.27,ESE,123,0.0,0.0,94,0.00,,---,0.00,VWS V14.01,2013-01-26 12:11:00,
2013-01-26 06:13:00,25.1,23.6,30.27,ESE,123,0.0,0.0,94,0.00,,---,0.00,VWS V14.01,2013-01-26 12:13:00,
2013-01-26 06:14:00,25.0,23.5,30.27,ESE,123,0.0,0.0,94,0.00,,---,0.00,VWS V14.01,2013-01-26 12:14:00,
2013-01-26 06:16:00,25.0,23.5,30.27,ESE,123,0.0,0.0,94,0.00,,---,0.00,VWS V14.01,2013-01-26 12:16:00,
2013-01-26 06:18:00,25.1,23.6,30.27,ESE,123,0.0,0.0,94,0.00,,---,0.00,VWS V14.01,2013-01-26 12:18:00,
2013-01-26 06:19:00,25.1,23.6,30.27,ESE,123,0.0,0.0,94,0.00,,---,0.00,VWS V14.01,2013-01-26 12:19:00,
2013-01-26 06:21:00,25.1,23.6,30.27,ESE,123,0.0,0.0,94,0.00,,---,0.00,VWS V14.01,2013-01-26 12:21:00,
2013-01-26 06:23:00,25.0,23.5,30.27,ESE,123,0.0,0.0,94,0.00,,---,0.00,VWS V14.01,2013-01-26 12:23:00,
2013-01-26 06:24:00,25.0,23.5,30.27,ESE,123,0.0,0.0,94,0.00,,---,0.00,VWS V14.01,2013-01-26 12:24:00,
2013-01-26 06:26:00,25.0,23.5,30.27,ESE,123,0.0,0.0,94,0.00,,---,0.00,VWS V14.01,2013-01-26 12:26:00,
2013-01-26 06:28:00,25.0,23.5,30.28,ESE,123,0.0,0.0,94,0.00,,---,0.00,VWS V14.01,2013-01-26 12:28:00,
2013-01-26 06:30:00,24.9,23.4,30.28,ESE,123,0.0,0.0,94,0.00,,---,0.00,VWS V14.01,2013-01-26 12:30:00,
2013-01-26 06:31:00,24.9,23.4,30.28,ESE,123,0.0,0.0,94,0.00,,---,0.00,VWS V14.01,2013-01-26 12:31:00,
2013-01-26 06:33:00,24.9,23.4,30.28,ESE,123,0.0,0.0,94,0.00,,---,0.00,VWS V14.01,2013-01-26 12:33:00,
2013-01-26 06:35:00,25.0,23.5,30.28,ESE,123,0.0,0.0,94,0.00,,---,0.00,VWS V14.01,2013-01-26 12:35:00,
2013-01-26 06:37:00,25.1,23.6,30.28,ESE,123,0.0,0.0,94,0.00,,---,0.00,VWS V14.01,2013-01-26 12:37:00,
2013-01-26 06:39:00,25.0,23.5,30.28,ESE,123,0.0,0.0,94,0.00,,---,0.00,VWS V14.01,2013-01-26 12:39:00,
2013-01-26 06:40:00,25.1,23.6,30.28,ESE,123,0.0,0.0,94,0.00,,---,0.00,VWS V14.01,2013-01-26 12:40:00,
2013-01-26 06:42:00,25.0,23.5,30.28,ESE,123,0.0,0.0,94,0.00,,---,0.00,VWS V14.01,2013-01-26 12:42:00,
2013-01-26 06:44:00,25.0,23.5,30.28,ESE,123,0.0,0.0,94,0.00,,---,0.00,VWS V14.01,2013-01-26 12:44:00,
2013-01-26 06:45:00,25.0,23.5,30.28,ESE,123,0.0,0.0,94,0.00,,---,0.00,VWS V14.01,2013-01-26 12:45:00,
2013-01-26 06:48:00,25.0,23.5,30.28,ESE,123,0.0,0.0,94,0.00,,---,0.00,VWS V14.01,2013-01-26 12:48:00,
2013-01-26 06:49:00,25.1,23.6,30.29,ESE,123,0.0,0.0,94,0.00,,---,0.00,VWS V14.01,2013-01-26 12:49:00,
2013-01-26 06:50:00,25.1,23.6,30.29,ESE,123,0.0,0.0,94,0.00,,---,0.00,VWS V14.01,2013-01-26 12:50:00,
2013-01-26 06:53:00,25.1,23.6,30.29,ESE,123,0.0,0.0,94,0.00,,---,0.00,VWS V14.01,2013-01-26 12:53:00,
2013-01-26 06:54:00,25.2,23.7,30.29,ESE,123,0.0,0.0,94,0.00,,---,0.00,VWS V14.01,2013-01-26 12:54:00,
2013-01-26 06:55:00,25.2,23.7,30.29,ESE,123,0.0,0.0,94,0.00,,---,0.00,VWS V14.01,2013-01-26 12:55:00,
2013-01-26 06:58:00,25.4,23.9,30.29,ESE,123,0.0,0.0,94,0.00,,---,0.00,VWS V14.01,2013-01-26 12:58:00,
2013-01-26 06:59:00,25.4,23.9,30.29,ESE,123,0.0,0.0,94,0.00,,---,0.00,VWS V14.01,2013-01-26 12:59:00,
2013-01-26 07:00:00,25.4,23.9,30.29,ESE,123,0.0,0.0,94,0.00,,---,0.00,VWS V14.01,2013-01-26 13:00:00,
2013-01-26 07:04:00,25.5,24.0,30.29,ESE,123,0.0,0.0,94,0.00,,---,0.00,VWS V14.01,2013-01-26 13:04:00,
2013-01-26 07:05:00,25.5,24.0,30.30,ESE,123,0.0,0.0,94,0.00,,---,0.00,VWS V14.01,2013-01-26 13:05:00,
2013-01-26 07:09:00,25.6,24.1,30.29,ESE,123,0.0,0.0,94,0.00,,---,0.00,VWS V14.01,2013-01-26 13:09:00,
2013-01-26 07:10:00,25.7,24.2,30.29,ESE,123,0.0,0.0,94,0.00,,---,0.00,VWS V14.01,2013-01-26 13:10:00,
2013-01-26 07:14:00,25.7,24.2,30.30,ESE,123,0.0,0.0,94,0.00,,---,0.00,VWS V14.01,2013-01-26 13:14:00,
2013-01-26 07:15:00,25.7,24.2,30.30,ESE,123,0.0,0.0,94,0.00,,---,0.00,VWS V14.01,2013-01-26 13:15:00,
2013-01-26 07:16:00,25.7,24.2,30.30,ESE,123,0.0,0.0,94,0.00,,---,0.00,VWS V14.01,2013-01-26 13:16:00,
2013-01-26 07:19:00,25.6,24.1,30.30,ESE,123,0.0,0.0,94,0.00,,---,0.00,VWS V14.01,2013-01-26 13:19:00,
2013-01-26 07:20:00,25.6,24.1,30.30,ESE,123,0.0,0.0,94,0.00,,---,0.00,VWS V14.01,2013-01-26 13:20:00,
2013-01-26 07:21:00,25.5,24.0,30.30,ESE,123,0.0,0.0,94,0.00,,---,0.00,VWS V14.01,2013-01-26 13:21:00,
2013-01-26 07:24:00,25.5,24.0,30.30,ESE,123,0.0,0.0,94,0.00,,---,0.00,VWS V14.01,2013-01-26 13:24:00,
2013-01-26 07:25:00,25.6,24.1,30.30,ESE,123,0.0,0.0,94,0.00,,---,0.00,VWS V14.01,2013-01-26 13:25:00,
2013-01-26 07:26:00,25.6,24.1,30.30,ESE,123,0.0,0.0,94,0.00,,---,0.00,VWS V14.01,2013-01-26 13:26:00,
2013-01-26 07:30:00,25.7,24.2,30.30,ESE,123,0.0,0.0,94,0.00,,---,0.00,VWS V14.01,2013-01-26 13:30:00,
2013-01-26 07:31:00,25.8,24.3,30.30,ESE,123,0.0,0.0,94,0.00,,---,0.00,VWS V14.01,2013-01-26 13:31:00,
2013-01-26 07:35:00,26.3,25.1,30.30,ESE,123,0.0,0.0,95,0.00,,---,0.00,VWS V14.01,2013-01-26 13:35:00,
2013-01-26 07:36:00,26.4,25.2,30.30,ESE,123,0.0,0.0,95,0.00,,---,0.00,VWS V14.01,2013-01-26 13:36:00,
2013-01-26 07:40:00,26.5,25.0,30.30,ESE,123,0.0,0.0,94,0.00,,---,0.00,VWS V14.01,2013-01-26 13:40:00,
2013-01-26 07:41:00,26.6,25.1,30.30,ESE,123,0.0,0.0,94,0.00,,---,0.00,VWS V14.01,2013-01-26 13:41:00,
2013-01-26 07:45:00,26.6,25.1,30.30,ESE,123,0.0,0.0,94,0.00,,---,0.00,VWS V14.01,2013-01-26 13:45:00,
2013-01-26 07:46:00,26.6,25.1,30.30,ESE,123,0.0,0.0,94,0.00,,---,0.00,VWS V14.01,2013-01-26 13:46:00,
2013-01-26 07:50:00,26.8,25.3,30.30,ESE,123,0.0,0.0,94,0.00,,---,0.00,VWS V14.01,2013-01-26 13:50:00,
2013-01-26 07:51:00,26.8,25.3,30.31,ESE,123,0.0,0.0,94,0.00,,---,0.00,VWS V14.01,2013-01-26 13:51:00,
2013-01-26 07:52:00,26.9,25.4,30.31,ESE,123,0.0,0.0,94,0.00,,---,0.00,VWS V14.01,2013-01-26 13:52:00,
2013-01-26 07:55:00,27.2,25.7,30.31,ESE,123,1.0,2.0,94,0.00,,---,0.00,VWS V14.01,2013-01-26 13:55:00,
2013-01-26 07:56:00,27.2,25.7,30.31,ESE,123,2.0,2.0,94,0.00,,---,0.00,VWS V14.01,2013-01-26 13:56:00,
2013-01-26 07:57:00,27.3,25.8,30.31,ESE,123,1.0,2.0,94,0.00,,---,0.00,VWS V14.01,2013-01-26 13:57:00,
2013-01-26 08:00:00,27.3,25.8,30.31,ESE,123,1.0,2.0,94,0.00,,---,0.00,VWS V14.01,2013-01-26 14:00:00,
2013-01-26 08:01:00,27.5,26.0,30.32,ESE,123,2.0,2.0,94,0.00,,---,0.00,VWS V14.01,2013-01-26 14:01:00,
2013-01-26 08:02:00,27.6,26.1,30.32,ESE,123,1.0,2.0,94,0.00,,---,0.00,VWS V14.01,2013-01-26 14:02:00,
2013-01-26 08:03:00,27.6,26.1,30.32,ESE,123,1.0,2.0,94,0.00,,---,0.00,VWS V14.01,2013-01-26 14:03:00,
2013-01-26 08:06:00,27.9,26.4,30.32,ESE,123,0.0,2.0,94,0.00,,---,0.00,VWS V14.01,2013-01-26 14:06:00,
2013-01-26 08:07:00,28.1,26.6,30.32,ESE,123,0.0,2.0,94,0.00,,---,0.00,VWS V14.01,2013-01-26 14:07:00,
2013-01-26 08:08:00,28.1,26.6,30.32,ESE,123,0.0,2.0,94,0.00,,---,0.00,VWS V14.01,2013-01-26 14:08:00,
2013-01-26 08:11:00,28.4,26.9,30.32,ESE,123,0.0,2.0,94,0.00,,---,0.00,VWS V14.01,2013-01-26 14:11:00,
2013-01-26 08:13:00,28.5,27.0,30.32,ESE,123,0.0,2.0,94,0.00,,---,0.00,VWS V14.01,2013-01-26 14:13:00,
2013-01-26 08:16:00,28.4,26.9,30.32,ESE,123,0.0,2.0,94,0.00,,---,0.00,VWS V14.01,2013-01-26 14:16:00,
2013-01-26 08:17:00,28.4,26.9,30.32,ESE,123,0.0,2.0,94,0.00,,---,0.00,VWS V14.01,2013-01-26 14:17:00,
2013-01-26 08:18:00,28.5,27.0,30.32,ESE,123,0.0,2.0,94,0.00,,---,0.00,VWS V14.01,2013-01-26 14:18:00,
2013-01-26 08:21:00,29.0,27.5,30.32,ESE,123,0.0,2.0,94,0.00,,---,0.00,VWS V14.01,2013-01-26 14:21:00,
2013-01-26 08:22:00,29.1,27.6,30.32,ESE,123,0.0,2.0,94,0.00,,---,0.00,VWS V14.01,2013-01-26 14:22:00,
2013-01-26 08:23:00,29.0,27.5,30.32,ESE,123,0.0,2.0,94,0.00,,---,0.00,VWS V14.01,2013-01-26 14:23:00,
2013-01-26 08:26:00,29.1,27.6,30.32,ESE,123,0.0,2.0,94,0.00,,---,0.00,VWS V14.01,2013-01-26 14:26:00,
2013-01-26 08:27:00,29.2,27.7,30.32,ESE,123,0.0,2.0,94,0.00,,---,0.00,VWS V14.01,2013-01-26 14:27:00,
2013-01-26 08:28:00,29.4,27.9,30.32,ESE,123,1.0,2.0,94,0.00,,---,0.00,VWS V14.01,2013-01-26 14:28:00,
2013-01-26 08:29:00,29.5,28.0,30.32,ESE,123,1.0,2.0,94,0.00,,---,0.00,VWS V14.01,2013-01-26 14:29:00,
2013-01-26 08:30:00,29.2,27.7,30.32,ESE,123,1.0,2.0,94,0.00,,---,0.00,VWS V14.01,2013-01-26 14:30:00,
2013-01-26 08:31:00,30.0,28.2,30.32,ESE,123,0.0,2.0,93,0.00,,---,0.00,VWS V14.01,2013-01-26 14:31:00,
2013-01-26 08:32:00,30.2,28.4,30.32,ESE,123,0.0,2.0,93,0.00,,---,0.00,VWS V14.01,2013-01-26 14:32:00,
2013-01-26 08:33:00,30.3,28.3,30.32,ESE,123,0.0,2.0,92,0.00,,---,0.00,VWS V14.01,2013-01-26 14:33:00,
2013-01-26 08:34:00,30.3,28.3,30.32,ESE,123,0.0,2.0,92,0.00,,---,0.00,VWS V14.01,2013-01-26 14:34:00,
2013-01-26 08:37:00,30.4,28.1,30.32,ESE,123,0.0,2.0,91,0.00,,---,0.00,VWS V14.01,2013-01-26 14:37:00,
2013-01-26 08:39:00,30.4,28.1,30.32,ESE,123,1.0,2.0,91,0.00,,---,0.00,VWS V14.01,2013-01-26 14:39:00,
2013-01-26 08:42:00,30.5,27.9,30.33,ESE,123,0.0,2.0,90,0.00,,---,0.00,VWS V14.01,2013-01-26 14:42:00,
2013-01-26 08:44:00,30.7,28.1,30.33,ESE,123,1.0,2.0,90,0.00,,---,0.00,VWS V14.01,2013-01-26 14:44:00,
2013-01-26 08:47:00,31.5,28.4,30.33,ESE,123,2.0,3.0,88,0.00,,---,0.00,VWS V14.01,2013-01-26 14:47:00,
2013-01-26 08:49:00,32.2,28.8,30.32,ESE,123,1.0,3.0,87,0.00,,---,0.00,VWS V14.01,2013-01-26 14:49:00,
2013-01-26 08:52:00,32.7,28.7,30.33,ESE,118,2.0,3.0,85,0.00,,---,0.00,VWS V14.01,2013-01-26 14:52:00,
2013-01-26 08:54:00,33.0,29.0,30.33,ESE,118,1.0,3.0,85,0.00,,---,0.00,VWS V14.01,2013-01-26 14:54:00,
2013-01-26 08:57:00,33.4,28.2,30.33,NW,315,5.0,5.0,81,0.00,,---,0.00,VWS V14.01,2013-01-26 14:57:00,
2013-01-26 08:58:00,33.5,28.0,30.33,NW,319,5.0,5.0,80,0.00,,---,0.00,VWS V14.01,2013-01-26 14:58:00,
2013-01-26 08:59:00,33.6,28.1,30.33,NW,325,2.0,5.0,80,0.00,,---,0.00,VWS V14.01,2013-01-26 14:59:00,
2013-01-26 09:00:00,33.5,28.0,30.33,NW,319,5.0,5.0,80,0.00,,---,0.00,VWS V14.01,2013-01-26 15:00:00,
2013-01-26 09:03:00,33.9,27.8,30.33,NNW,335,1.0,5.0,78,0.00,,---,0.00,VWS V14.01,2013-01-26 15:03:00,
2013-01-26 09:04:00,34.1,28.3,30.33,NNW,335,1.0,5.0,79,0.00,,---,0.00,VWS V14.01,2013-01-26 15:04:00,
2013-01-26 09:08:00,34.7,27.9,30.33,NNW,345,3.0,7.0,76,0.00,,---,0.00,VWS V14.01,2013-01-26 15:08:00,
2013-01-26 09:09:00,34.7,28.2,30.33,NW,325,6.0,8.0,77,0.00,,---,0.00,VWS V14.01,2013-01-26 15:09:00,
2013-01-26 09:10:00,34.8,28.0,30.33,NNW,342,3.0,8.0,76,0.00,,---,0.00,VWS V14.01,2013-01-26 15:10:00,
2013-01-26 09:13:00,34.9,27.8,30.33,NW,318,4.0,8.0,75,0.00,,---,0.00,VWS V14.01,2013-01-26 15:13:00,
2013-01-26 09:14:00,34.8,27.7,30.33,NNW,335,6.0,8.0,75,0.00,,---,0.00,VWS V14.01,2013-01-26 15:14:00,
2013-01-26 09:15:00,34.8,27.4,30.33,North,356,4.0,8.0,74,0.00,,---,0.00,VWS V14.01,2013-01-26 15:15:00,
2013-01-26 09:18:00,34.9,27.8,30.33,NNW,335,6.0,8.0,75,0.00,,---,0.00,VWS V14.01,2013-01-26 15:18:00,
2013-01-26 09:19:00,35.0,27.9,30.33,NW,307,6.0,8.0,75,0.00,,---,0.00,VWS V14.01,2013-01-26 15:19:00,
2013-01-26 09:20:00,35.0,28.2,30.33,NW,325,4.0,8.0,76,0.00,,---,0.00,VWS V14.01,2013-01-26 15:20:00,
2013-01-26 09:23:00,35.3,28.2,30.33,NW,316,7.0,8.0,75,0.00,,---,0.00,VWS V14.01,2013-01-26 15:23:00,
2013-01-26 09:24:00,35.5,28.7,30.33,WNW,295,7.0,8.0,76,0.00,,---,0.00,VWS V14.01,2013-01-26 15:24:00,
2013-01-26 09:25:00,35.5,28.4,30.33,NW,316,6.0,8.0,75,0.00,,---,0.00,VWS V14.01,2013-01-26 15:25:00,
2013-01-26 09:28:00,35.7,28.6,30.33,NW,313,8.0,9.0,75,0.00,,---,0.00,VWS V14.01,2013-01-26 15:28:00,
2013-01-26 09:29:00,35.8,27.7,30.33,North,4,7.0,9.0,72,0.00,,---,0.00,VWS V14.01,2013-01-26 15:29:00,
2013-01-26 09:30:00,35.7,28.6,30.33,NW,325,7.0,9.0,75,0.00,,---,0.00,VWS V14.01,2013-01-26 15:30:00,
2013-01-26 09:31:00,35.8,27.7,30.33,North,353,5.0,9.0,72,0.00,,---,0.00,VWS V14.01,2013-01-26 15:31:00,
2013-01-26 09:33:00,36.1,27.6,30.34,North,352,8.0,9.0,71,0.00,,---,0.00,VWS V14.01,2013-01-26 15:33:00,
2013-01-26 09:35:00,36.1,27.6,30.34,NNW,339,5.0,9.0,71,0.00,,---,0.00,VWS V14.01,2013-01-26 15:35:00,
2013-01-26 09:36:00,36.2,27.7,30.34,NNW,335,8.0,9.0,71,0.00,,---,0.00,VWS V14.01,2013-01-26 15:36:00,
2013-01-26 09:38:00,36.3,27.8,30.34,North,355,4.0,9.0,71,0.00,,---,0.00,VWS V14.01,2013-01-26 15:38:00,
2013-01-26 09:40:00,36.3,27.8,30.34,North,1,5.0,9.0,71,0.00,,---,0.00,VWS V14.01,2013-01-26 15:40:00,
2013-01-26 09:41:00,36.4,27.6,30.34,WNW,295,3.0,9.0,70,0.00,,---,0.00,VWS V14.01,2013-01-26 15:41:00,
2013-01-26 09:43:00,36.7,28.2,30.34,NW,321,4.0,9.0,71,0.00,,---,0.00,VWS V14.01,2013-01-26 15:43:00,
2013-01-26 09:44:00,36.7,27.9,30.34,NNW,335,4.0,9.0,70,0.00,,---,0.00,VWS V14.01,2013-01-26 15:44:00,
2013-01-26 09:45:00,36.8,28.0,30.34,NW,316,5.0,9.0,70,0.00,,---,0.00,VWS V14.01,2013-01-26 15:45:00,
2013-01-26 09:46:00,36.8,28.0,30.34,NNW,340,5.0,9.0,70,0.00,,---,0.00,VWS V14.01,2013-01-26 15:46:00,
2013-01-26 09:48:00,37.0,28.1,30.34,NW,308,7.0,9.0,70,0.00,,---,0.00,VWS V14.01,2013-01-26 15:48:00,
2013-01-26 09:49:00,37.0,28.1,30.34,NW,309,8.0,9.0,70,0.00,,---,0.00,VWS V14.01,2013-01-26 15:49:00,
2013-01-26 09:50:00,37.0,27.8,30.34,NNW,347,4.0,9.0,69,0.00,,---,0.00,VWS V14.01,2013-01-26 15:50:00,
2013-01-26 09:51:00,37.1,27.9,30.34,NNW,335,6.0,9.0,69,0.00,,---,0.00,VWS V14.01,2013-01-26 15:51:00,
2013-01-26 09:54:00,37.1,27.5,30.35,NNW,335,5.0,9.0,68,0.00,,---,0.00,VWS V14.01,2013-01-26 15:54:00,
2013-01-26 09:55:00,37.3,28.1,30.35,NNW,347,3.0,9.0,69,0.00,,---,0.00,VWS V14.01,2013-01-26 15:55:00,
2013-01-26 09:56:00,37.3,27.7,30.35,WNW,300,6.0,9.0,68,0.00,,---,0.00,VWS V14.01,2013-01-26 15:56:00,
2013-01-26 09:59:00,37.3,27.7,30.35,NNW,339,5.0,7.0,68,0.00,,---,0.00,VWS V14.01,2013-01-26 15:59:00,
2013-01-26 10:00:00,37.3,27.7,30.35,North,352,3.0,7.0,68,0.00,,---,0.00,VWS V14.01,2013-01-26 16:00:00,
2013-01-26 10:02:00,37.4,27.8,30.35,North,358,3.0,7.0,68,0.00,,---,0.00,VWS V14.01,2013-01-26 16:02:00,
2013-01-26 10:04:00,37.7,28.1,30.35,NW,313,5.0,8.0,68,0.00,,---,0.00,VWS V14.01,2013-01-26 16:04:00,
2013-01-26 10:05:00,37.7,27.8,30.35,NW,306,4.0,8.0,67,0.00,,---,0.00,VWS V14.01,2013-01-26 16:05:00,
2013-01-26 10:07:00,37.7,27.8,30.35,North,349,4.0,8.0,67,0.00,,---,0.00,VWS V14.01,2013-01-26 16:07:00,
2013-01-26 10:09:00,37.7,27.8,30.35,NW,315,5.0,8.0,67,0.00,,---,0.00,VWS V14.01,2013-01-26 16:09:00,
2013-01-26 10:11:00,37.7,27.8,30.35,WNW,297,4.0,8.0,67,0.00,,---,0.00,VWS V14.01,2013-01-26 16:11:00,
2013-01-26 10:12:00,37.7,28.1,30.35,NNW,335,5.0,8.0,68,0.00,,---,0.00,VWS V14.01,2013-01-26 16:12:00,
2013-01-26 10:14:00,37.9,27.9,30.34,NW,325,5.0,8.0,67,0.00,,---,0.00,VWS V14.01,2013-01-26 16:14:00,
2013-01-26 10:16:00,38.0,28.0,30.35,NNW,335,4.0,8.0,67,0.00,,---,0.00,VWS V14.01,2013-01-26 16:16:00,
2013-01-26 10:17:00,38.0,27.7,30.34,NNW,330,5.0,8.0,66,0.00,,---,0.00,VWS V14.01,2013-01-26 16:17:00,
2013-01-26 10:19:00,38.0,27.3,30.34,NNW,344,4.0,8.0,65,0.00,,---,0.00,VWS V14.01,2013-01-26 16:19:00,
2013-01-26 10:21:00,38.0,27.7,30.34,North,350,3.0,8.0,66,0.00,,---,0.00,VWS V14.01,2013-01-26 16:21:00,
2013-01-26 10:22:00,38.1,27.8,30.34,NW,313,5.0,8.0,66,0.00,,---,0.00,VWS V14.01,2013-01-26 16:22:00,
2013-01-26 10:24:00,38.2,27.9,30.35,NNW,347,6.0,8.0,66,0.00,,---,0.00,VWS V14.01,2013-01-26 16:24:00,
2013-01-26 10:25:00,38.2,27.5,30.35,NW,319,4.0,8.0,65,0.00,,---,0.00,VWS V14.01,2013-01-26 16:25:00,
2013-01-26 10:26:00,38.1,27.8,30.35,NNE,31,5.0,8.0,66,0.00,,---,0.00,VWS V14.01,2013-01-26 16:26:00,
2013-01-26 10:28:00,37.8,27.5,30.34,NNE,31,2.0,8.0,66,0.00,,---,0.00,VWS V14.01,2013-01-26 16:28:00,
2013-01-26 10:30:00,38.2,28.6,30.34,NNW,335,5.0,7.0,68,0.00,,---,0.00,VWS V14.01,2013-01-26 16:30:00,
2013-01-26 10:31:00,38.3,28.0,30.35,NNW,330,5.0,7.0,66,0.00,,---,0.00,VWS V14.01,2013-01-26 16:31:00,
2013-01-26 10:33:00,38.5,28.1,30.34,NNW,335,1.0,7.0,66,0.00,,---,0.00,VWS V14.01,2013-01-26 16:33:00,
2013-01-26 10:35:00,38.7,28.0,30.34,NNW,345,3.0,7.0,65,0.00,,---,0.00,VWS V14.01,2013-01-26 16:35:00,
2013-01-26 10:36:00,38.8,28.1,30.34,NNW,330,7.0,7.0,65,0.00,,---,0.00,VWS V14.01,2013-01-26 16:36:00,
2013-01-26 10:38:00,38.7,28.0,30.34,North,352,5.0,7.0,65,0.00,,---,0.00,VWS V14.01,2013-01-26 16:38:00,
2013-01-26 10:40:00,39.1,29.5,30.35,North,353,5.0,7.0,68,0.00,,---,0.00,VWS V14.01,2013-01-26 16:40:00,
2013-01-26 10:41:00,39.0,28.2,30.35,North,8,4.0,7.0,65,0.00,,---,0.00,VWS V14.01,2013-01-26 16:41:00,
2013-01-26 10:43:00,39.1,29.1,30.35,NW,325,7.0,8.0,67,0.00,,---,0.00,VWS V14.01,2013-01-26 16:43:00,
2013-01-26 10:45:00,39.0,28.2,30.35,WNW,290,2.0,8.0,65,0.00,,---,0.00,VWS V14.01,2013-01-26 16:45:00,
2013-01-26 10:46:00,38.9,28.1,30.35,WNW,289,0.0,8.0,65,0.00,,---,0.00,VWS V14.01,2013-01-26 16:46:00,
2013-01-26 10:48:00,38.8,27.7,30.35,NNW,344,3.0,8.0,64,0.00,,---,0.00,VWS V14.01,2013-01-26 16:48:00,
2013-01-26 10:50:00,39.2,28.1,30.35,NNW,345,5.0,8.0,64,0.00,,---,0.00,VWS V14.01,2013-01-26 16:50:00,
2013-01-26 10:52:00,39.4,28.6,30.34,NNW,335,2.0,8.0,65,0.00,,---,0.00,VWS V14.01,2013-01-26 16:52:00,
2013-01-26 10:53:00,39.4,28.6,30.35,North,2,0.0,8.0,65,0.00,,---,0.00,VWS V14.01,2013-01-26 16:53:00,
2013-01-26 10:55:00,39.2,28.1,30.34,North,353,2.0,8.0,64,0.00,,---,0.00,VWS V14.01,2013-01-26 16:55:00,
2013-01-26 10:57:00,39.1,28.3,30.35,NE,37,2.0,8.0,65,0.00,,---,0.00,VWS V14.01,2013-01-26 16:57:00,
2013-01-26 10:59:00,39.1,28.3,30.35,NE,37,1.0,4.0,65,0.00,,---,0.00,VWS V14.01,2013-01-26 16:59:00,
2013-01-26 11:00:00,39.3,28.5,30.34,North,8,4.0,7.0,65,0.00,,---,0.00,VWS V14.01,2013-01-26 17:00:00,
2013-01-26 11:02:00,39.4,28.6,30.34,NNW,330,4.0,7.0,65,0.00,,---,0.00,VWS V14.01,2013-01-26 17:02:00,
2013-01-26 11:04:00,39.6,28.4,30.34,North,6,4.0,7.0,64,0.00,,---,0.00,VWS V14.01,2013-01-26 17:04:00,
2013-01-26 11:05:00,39.6,28.4,30.34,NNW,330,6.0,8.0,64,0.00,,---,0.00,VWS V14.01,2013-01-26 17:05:00,
2013-01-26 11:06:00,39.6,28.4,30.34,NNW,341,6.0,8.0,64,0.00,,---,0.00,VWS V14.01,2013-01-26 17:06:00,
2013-01-26 11:07:00,39.5,28.0,30.34,North,4,2.0,8.0,63,0.00,,---,0.00,VWS V14.01,2013-01-26 17:07:00,
2013-01-26 11:09:00,39.8,29.0,30.34,North,6,5.0,8.0,65,0.00,,---,0.00,VWS V14.01,2013-01-26 17:09:00,
2013-01-26 11:11:00,40.2,29.8,30.34,NNW,335,5.0,8.0,66,0.00,,---,0.00,VWS V14.01,2013-01-26 17:11:00,
2013-01-26 11:12:00,40.0,28.4,30.34,NNW,348,5.0,8.0,63,0.00,,---,0.00,VWS V14.01,2013-01-26 17:12:00,
2013-01-26 11:14:00,39.7,28.5,30.34,NNE,26,5.0,8.0,64,0.00,,---,0.00,VWS V14.01,2013-01-26 17:14:00,
2013-01-26 11:16:00,39.3,27.8,30.34,North,356,2.0,8.0,63,0.00,,---,0.00,VWS V14.01,2013-01-26 17:16:00,
2013-01-26 11:17:00,39.3,28.2,30.34,NNW,330,4.0,8.0,64,0.00,,---,0.00,VWS V14.01,2013-01-26 17:17:00,
2013-01-26 11:19:00,39.2,28.1,30.34,North,356,4.0,8.0,64,0.00,,---,0.00,VWS V14.01,2013-01-26 17:19:00,
2013-01-26 11:21:00,39.3,27.8,30.34,North,360,5.0,8.0,63,0.00,,---,0.00,VWS V14.01,2013-01-26 17:21:00,
2013-01-26 11:22:00,39.4,28.2,30.34,North,1,5.0,8.0,64,0.00,,---,0.00,VWS V14.01,2013-01-26 17:22:00,
2013-01-26 11:25:00,39.4,28.6,30.34,North,8,4.0,8.0,65,0.00,,---,0.00,VWS V14.01,2013-01-26 17:25:00,
2013-01-26 11:26:00,39.4,27.9,30.34,NNE,24,2.0,8.0,63,0.00,,---,0.00,VWS V14.01,2013-01-26 17:26:00,
2013-01-26 11:27:00,39.3,27.8,30.34,NNE,24,2.0,8.0,63,0.00,,---,0.00,VWS V14.01,2013-01-26 17:27:00,
2013-01-26 11:30:00,39.6,28.1,30.34,NNW,335,5.0,7.0,63,0.00,,---,0.00,VWS V14.01,2013-01-26 17:30:00,
2013-01-26 11:31:00,39.7,28.1,30.34,North,355,4.0,7.0,63,0.00,,---,0.00,VWS V14.01,2013-01-26 17:31:00,
2013-01-26 11:32:00,39.8,28.2,30.34,North,8,5.0,7.0,63,0.00,,---,0.00,VWS V14.01,2013-01-26 17:32:00,
2013-01-26 11:35:00,39.8,28.2,30.34,NNW,341,3.0,7.0,63,0.00,,---,0.00,VWS V14.01,2013-01-26 17:35:00,
2013-01-26 11:37:00,39.9,28.3,30.34,NNE,21,4.0,7.0,63,0.00,,---,0.00,VWS V14.01,2013-01-26 17:37:00,
2013-01-26 11:38:00,39.8,27.9,30.34,NNW,340,1.0,7.0,62,0.00,,---,0.00,VWS V14.01,2013-01-26 17:38:00,
2013-01-26 11:40:00,40.0,27.6,30.34,NW,306,4.0,7.0,61,0.00,,---,0.00,VWS V14.01,2013-01-26 17:40:00,
2013-01-26 11:42:00,40.4,28.4,30.34,WNW,283,2.0,7.0,62,0.00,,---,0.00,VWS V14.01,2013-01-26 17:42:00,
2013-01-26 11:43:00,40.5,28.9,30.34,WNW,283,1.0,7.0,63,0.00,,---,0.00,VWS V14.01,2013-01-26 17:43:00,
2013-01-26 11:45:00,41.0,29.0,30.33,WNW,287,8.0,8.0,62,0.00,,---,0.00,VWS V14.01,2013-01-26 17:45:00,
2013-01-26 11:47:00,41.2,29.2,30.34,WNW,289,3.0,8.0,62,0.00,,---,0.00,VWS V14.01,2013-01-26 17:47:00,
2013-01-26 11:48:00,41.1,28.7,30.33,WNW,287,2.0,8.0,61,0.00,,---,0.00,VWS V14.01,2013-01-26 17:48:00,
2013-01-26 11:51:00,41.0,28.2,30.33,North,354,0.0,8.0,60,0.00,,---,0.00,VWS V14.01,2013-01-26 17:51:00,
2013-01-26 11:52:00,40.9,28.5,30.33,WNW,285,5.0,8.0,61,0.00,,---,0.00,VWS V14.01,2013-01-26 17:52:00,
2013-01-26 11:53:00,40.9,28.5,30.33,NW,325,6.0,8.0,61,0.00,,---,0.00,VWS V14.01,2013-01-26 17:53:00,
2013-01-26 11:56:00,40.7,27.9,30.33,North,349,4.0,8.0,60,0.00,,---,0.00,VWS V14.01,2013-01-26 17:56:00,
2013-01-26 11:57:00,40.8,28.0,30.33,NNW,347,4.0,8.0,60,0.00,,---,0.00,VWS V14.01,2013-01-26 17:57:00,
2013-01-26 11:58:00,40.9,28.9,30.33,NW,312,3.0,5.0,62,0.00,,---,0.00,VWS V14.01,2013-01-26 17:58:00,
2013-01-26 12:00:00,40.8,28.0,30.33,NW,315,5.0,8.0,60,0.00,,---,0.00,VWS V14.01,2013-01-26 18:00:00,
2013-01-26 12:01:00,41.1,28.3,30.33,NW,310,5.0,6.0,60,0.00,,---,0.00,VWS V14.01,2013-01-26 18:01:00,
2013-01-26 12:02:00,41.2,28.8,30.33,NW,308,3.0,7.0,61,0.00,,---,0.00,VWS V14.01,2013-01-26 18:02:00,
2013-01-26 12:03:00,41.1,27.9,30.33,North,8,2.0,7.0,59,0.00,,---,0.00,VWS V14.01,2013-01-26 18:03:00,
2013-01-26 12:06:00,41.0,28.2,30.33,WNW,301,3.0,7.0,60,0.00,,---,0.00,VWS V14.01,2013-01-26 18:06:00,
2013-01-26 12:07:00,41.3,28.9,30.33,North,4,6.0,9.0,61,0.00,,---,0.00,VWS V14.01,2013-01-26 18:07:00,
2013-01-26 12:08:00,41.3,28.9,30.32,North,351,9.0,9.0,61,0.00,,---,0.00,VWS V14.01,2013-01-26 18:08:00,
2013-01-26 12:11:00,41.4,29.4,30.32,North,354,3.0,9.0,62,0.00,,---,0.00,VWS V14.01,2013-01-26 18:11:00,
2013-01-26 12:13:00,41.3,28.5,30.32,NW,316,5.0,9.0,60,0.00,,---,0.00,VWS V14.01,2013-01-26 18:13:00,
2013-01-26 12:14:00,41.3,28.5,30.32,NNW,335,3.0,9.0,60,0.00,,---,0.00,VWS V14.01,2013-01-26 18:14:00,
2013-01-26 12:16:00,41.2,28.0,30.32,NNW,335,0.0,9.0,59,0.00,,---,0.00,VWS V14.01,2013-01-26 18:16:00,
2013-01-26 12:18:00,41.6,30.0,30.32,NNW,339,0.0,9.0,63,0.00,,---,0.00,VWS V14.01,2013-01-26 18:18:00,
2013-01-26 12:19:00,41.8,30.5,30.32,ENE,66,2.0,9.0,64,0.00,,---,0.00,VWS V14.01,2013-01-26 18:19:00,
2013-01-26 12:21:00,42.0,28.7,30.31,NE,47,2.0,9.0,59,0.00,,---,0.00,VWS V14.01,2013-01-26 18:21:00,
2013-01-26 12:23:00,41.9,28.6,30.31,NE,52,1.0,9.0,59,0.00,,---,0.00,VWS V14.01,2013-01-26 18:23:00,
2013-01-26 12:24:00,41.9,28.6,30.31,NE,52,1.0,9.0,59,0.00,,---,0.00,VWS V14.01,2013-01-26 18:24:00,
2013-01-26 12:27:00,42.3,28.6,30.31,NNW,341,3.0,9.0,58,0.00,,---,0.00,VWS V14.01,2013-01-26 18:27:00,
2013-01-26 12:29:00,42.2,28.1,30.31,NW,314,5.0,8.0,57,0.00,,---,0.00,VWS V14.01,2013-01-26 18:29:00,
2013-01-26 12:30:00,42.3,28.6,30.31,NNW,345,6.0,9.0,58,0.00,,---,0.00,VWS V14.01,2013-01-26 18:30:00,
2013-01-26 12:32:00,41.9,28.2,30.31,WNW,301,6.0,8.0,58,0.00,,---,0.00,VWS V14.01,2013-01-26 18:32:00,
2013-01-26 12:34:00,41.9,28.2,30.31,NW,306,5.0,8.0,58,0.00,,---,0.00,VWS V14.01,2013-01-26 18:34:00,
2013-01-26 12:37:00,42.0,28.7,30.31,NW,308,2.0,8.0,59,0.00,,---,0.00,VWS V14.01,2013-01-26 18:37:00,
2013-01-26 12:39:00,42.4,28.7,30.31,NW,311,6.0,8.0,58,0.00,,---,0.00,VWS V14.01,2013-01-26 18:39:00,
2013-01-26 12:42:00,43.0,28.8,30.31,NW,317,6.0,9.0,57,0.00,,---,0.00,VWS V14.01,2013-01-26 18:42:00,
2013-01-26 12:44:00,42.9,27.9,30.31,North,2,3.0,9.0,55,0.00,,---,0.00,VWS V14.01,2013-01-26 18:44:00,
2013-01-26 12:48:00,42.4,27.8,30.31,NNW,342,2.0,9.0,56,0.00,,---,0.00,VWS V14.01,2013-01-26 18:48:00,
2013-01-26 12:49:00,42.5,28.4,30.31,NNE,33,3.0,9.0,57,0.00,,---,0.00,VWS V14.01,2013-01-26 18:49:00,
2013-01-26 12:53:00,42.8,28.2,30.31,NNW,335,4.0,9.0,56,0.00,,---,0.00,VWS V14.01,2013-01-26 18:53:00,
2013-01-26 12:54:00,42.7,27.7,30.31,NNW,335,1.0,9.0,55,0.00,,---,0.00,VWS V14.01,2013-01-26 18:54:00,
2013-01-26 12:58:00,42.9,27.9,30.30,North,360,2.0,4.0,55,0.00,,---,0.00,VWS V14.01,2013-01-26 18:58:00,
2013-01-26 12:59:00,42.9,27.9,30.30,NNE,12,1.0,4.0,55,0.00,,---,0.00,VWS V14.01,2013-01-26 18:59:00,
2013-01-26 13:00:00,43.0,28.0,30.30,North,354,5.0,6.0,55,0.00,,---,0.00,VWS V14.01,2013-01-26 19:00:00,
2013-01-26 13:03:00,43.2,27.7,30.30,NNW,345,5.0,9.0,54,0.00,,---,0.00,VWS V14.01,2013-01-26 19:03:00,
2013-01-26 13:04:00,43.4,28.3,30.30,NNW,339,8.0,9.0,55,0.00,,---,0.00,VWS V14.01,2013-01-26 19:04:00,
2013-01-26 13:05:00,43.6,27.6,30.30,North,357,3.0,9.0,53,0.00,,---,0.00,VWS V14.01,2013-01-26 19:05:00,
2013-01-26 13:08:00,43.5,28.0,30.30,NNW,339,3.0,9.0,54,0.00,,---,0.00,VWS V14.01,2013-01-26 19:08:00,
2013-01-26 13:09:00,43.3,27.3,30.30,NNW,339,2.0,9.0,53,0.00,,---,0.00,VWS V14.01,2013-01-26 19:09:00,
2013-01-26 13:10:00,43.3,27.8,30.30,NNW,335,1.0,9.0,54,0.00,,---,0.00,VWS V14.01,2013-01-26 19:10:00,
2013-01-26 13:14:00,44.1,29.4,30.30,NNW,348,6.0,9.0,56,0.00,,---,0.00,VWS V14.01,2013-01-26 19:14:00,
2013-01-26 13:15:00,44.2,28.2,30.30,North,350,4.0,9.0,53,0.00,,---,0.00,VWS V14.01,2013-01-26 19:15:00,
2013-01-26 13:16:00,44.1,27.1,30.30,NNW,335,3.0,9.0,51,0.00,,---,0.00,VWS V14.01,2013-01-26 19:16:00,
2013-01-26 13:19:00,44.1,27.6,30.30,NW,306,5.0,9.0,52,0.00,,---,0.00,VWS V14.01,2013-01-26 19:19:00,
2013-01-26 13:20:00,44.0,27.5,30.29,West,278,3.0,9.0,52,0.00,,---,0.00,VWS V14.01,2013-01-26 19:20:00,
2013-01-26 13:21:00,43.9,27.4,30.30,West,274,2.0,9.0,52,0.00,,---,0.00,VWS V14.01,2013-01-26 19:21:00,
2013-01-26 13:24:00,43.5,27.1,30.29,WSW,249,2.0,9.0,52,0.00,,---,0.00,VWS V14.01,2013-01-26 19:24:00,
2013-01-26 13:25:00,43.4,27.0,30.29,West,270,2.0,9.0,52,0.00,,---,0.00,VWS V14.01,2013-01-26 19:25:00,
2013-01-26 13:26:00,43.4,27.4,30.29,North,354,6.0,9.0,53,0.00,,---,0.00,VWS V14.01,2013-01-26 19:26:00,
2013-01-26 13:29:00,43.3,26.9,30.29,North,357,2.0,4.0,52,0.00,,---,0.00,VWS V14.01,2013-01-26 19:29:00,
2013-01-26 13:30:00,43.3,26.9,30.29,North,8,5.0,5.0,52,0.00,,---,0.00,VWS V14.01,2013-01-26 19:30:00,
2013-01-26 13:31:00,43.3,27.3,30.29,NNE,16,4.0,7.0,53,0.00,,---,0.00,VWS V14.01,2013-01-26 19:31:00,
2013-01-26 13:34:00,43.1,26.7,30.29,NNE,23,3.0,8.0,52,0.00,,---,0.00,VWS V14.01,2013-01-26 19:34:00,
2013-01-26 13:35:00,43.0,26.6,30.29,NNW,330,5.0,8.0,52,0.00,,---,0.00,VWS V14.01,2013-01-26 19:35:00,
2013-01-26 13:36:00,43.1,27.1,30.29,NW,325,7.0,8.0,53,0.00,,---,0.00,VWS V14.01,2013-01-26 19:36:00,
2013-01-26 13:39:00,43.1,27.1,30.29,NW,317,6.0,8.0,53,0.00,,---,0.00,VWS V14.01,2013-01-26 19:39:00,
2013-01-26 13:40:00,43.2,27.7,30.29,NNW,341,3.0,8.0,54,0.00,,---,0.00,VWS V14.01,2013-01-26 19:40:00,
2013-01-26 13:41:00,43.3,27.3,30.29,NNW,346,4.0,8.0,53,0.00,,---,0.00,VWS V14.01,2013-01-26 19:41:00,
2013-01-26 13:44:00,44.0,28.0,30.29,WNW,299,4.0,8.0,53,0.00,,---,0.00,VWS V14.01,2013-01-26 19:44:00,
2013-01-26 13:45:00,43.9,27.4,30.29,NW,325,4.0,8.0,52,0.00,,---,0.00,VWS V14.01,2013-01-26 19:45:00,
2013-01-26 13:46:00,43.8,27.3,30.29,NNW,330,3.0,8.0,52,0.00,,---,0.00,VWS V14.01,2013-01-26 19:46:00,
2013-01-26 13:49:00,44.0,28.0,30.29,NW,309,2.0,8.0,53,0.00,,---,0.00,VWS V14.01,2013-01-26 19:49:00,
2013-01-26 13:50:00,44.1,27.6,30.29,NNW,341,3.0,8.0,52,0.00,,---,0.00,VWS V14.01,2013-01-26 19:50:00,
2013-01-26 13:51:00,44.5,28.5,30.29,NNW,339,3.0,8.0,53,0.00,,---,0.00,VWS V14.01,2013-01-26 19:51:00,
2013-01-26 13:54:00,44.7,27.7,30.29,NNE,25,5.0,8.0,51,0.00,,---,0.00,VWS V14.01,2013-01-26 19:54:00,
2013-01-26 13:56:00,44.8,27.8,30.29,NNW,339,5.0,8.0,51,0.00,,---,0.00,VWS V14.01,2013-01-26 19:56:00,
2013-01-26 14:00:00,44.9,27.4,30.28,NNW,345,5.0,8.0,50,0.00,,---,0.00,VWS V14.01,2013-01-26 20:00:00,
2013-01-26 14:01:00,44.9,27.4,30.28,NW,325,5.0,8.0,50,0.00,,---,0.00,VWS V14.01,2013-01-26 20:01:00,
2013-01-26 14:05:00,44.9,27.9,30.28,ESE,121,1.0,9.0,51,0.00,,---,0.00,VWS V14.01,2013-01-26 20:05:00,
2013-01-26 14:06:00,44.9,27.9,30.28,ESE,123,1.0,9.0,51,0.00,,---,0.00,VWS V14.01,2013-01-26 20:06:00,
2013-01-26 14:11:00,44.7,26.7,30.28,NW,311,5.0,12.0,49,0.00,,---,0.00,VWS V14.01,2013-01-26 20:11:00,
2013-01-26 14:16:00,44.6,27.6,30.28,North,354,6.0,12.0,51,0.00,,---,0.00,VWS V14.01,2013-01-26 20:16:00,
2013-01-26 14:17:00,44.5,28.0,30.28,NNE,31,10.0,12.0,52,0.00,,---,0.00,VWS V14.01,2013-01-26 20:17:00,
2013-01-26 14:21:00,44.7,29.5,30.28,North,3,3.0,12.0,55,0.00,,---,0.00,VWS V14.01,2013-01-26 20:21:00,
2013-01-26 14:22:00,44.7,28.2,30.27,NNW,348,5.0,12.0,52,0.00,,---,0.00,VWS V14.01,2013-01-26 20:22:00,
2013-01-26 14:26:00,44.9,28.4,30.27,NNE,14,3.0,12.0,52,0.00,,---,0.00,VWS V14.01,2013-01-26 20:26:00,
2013-01-26 14:27:00,44.9,28.8,30.27,NNE,23,2.0,12.0,53,0.00,,---,0.00,VWS V14.01,2013-01-26 20:27:00,
2013-01-26 14:30:00,45.0,29.4,30.28,NE,44,7.0,12.0,54,0.00,,---,0.00,VWS V14.01,2013-01-26 20:30:00,
2013-01-26 14:31:00,44.5,28.5,30.28,NNE,16,5.0,7.0,53,0.00,,---,0.00,VWS V14.01,2013-01-26 20:31:00,
2013-01-26 14:32:00,44.5,28.5,30.28,NNW,335,5.0,7.0,53,0.00,,---,0.00,VWS V14.01,2013-01-26 20:32:00,
2013-01-26 14:36:00,44.5,28.0,30.27,NE,53,2.0,8.0,52,0.00,,---,0.00,VWS V14.01,2013-01-26 20:36:00,
2013-01-26 14:37:00,44.5,28.5,30.27,NNW,339,4.0,8.0,53,0.00,,---,0.00,VWS V14.01,2013-01-26 20:37:00,
2013-01-26 14:38:00,44.5,28.5,30.27,NNE,23,3.0,8.0,53,0.00,,---,0.00,VWS V14.01,2013-01-26 20:38:00,
2013-01-26 14:41:00,44.5,28.5,30.27,NNE,16,7.0,10.0,53,0.00,,---,0.00,VWS V14.01,2013-01-26 20:41:00,
2013-01-26 14:42:00,44.4,27.9,30.27,NE,35,5.0,10.0,52,0.00,,---,0.00,VWS V14.01,2013-01-26 20:42:00,
2013-01-26 14:43:00,44.3,28.3,30.27,ENE,68,8.0,10.0,53,0.00,,---,0.00,VWS V14.01,2013-01-26 20:43:00,
2013-01-26 14:47:00,44.3,27.8,30.27,NNE,16,8.0,10.0,52,0.00,,---,0.00,VWS V14.01,2013-01-26 20:47:00,
2013-01-26 14:48:00,44.2,27.7,30.27,NNE,33,9.0,10.0,52,0.00,,---,0.00,VWS V14.01,2013-01-26 20:48:00,
2013-01-26 14:52:00,44.3,28.7,30.27,NNE,21,4.0,10.0,54,0.00,,---,0.00,VWS V14.01,2013-01-26 20:52:00,
2013-01-26 14:53:00,44.5,28.5,30.27,NE,48,5.0,10.0,53,0.00,,---,0.00,VWS V14.01,2013-01-26 20:53:00,
2013-01-26 14:57:00,44.8,27.8,30.28,NNE,23,6.0,10.0,51,0.00,,---,0.00,VWS V14.01,2013-01-26 20:57:00,
2013-01-26 14:58:00,44.7,28.2,30.28,NNE,16,4.0,6.0,52,0.00,,---,0.00,VWS V14.01,2013-01-26 20:58:00,
2013-01-26 15:00:00,44.7,28.2,30.28,NNE,16,6.0,10.0,52,0.00,,---,0.00,VWS V14.01,2013-01-26 21:00:00,
2013-01-26 15:02:00,44.5,27.5,30.28,NE,45,7.0,8.0,51,0.00,,---,0.00,VWS V14.01,2013-01-26 21:02:00,
2013-01-26 15:03:00,44.3,27.3,30.28,NNE,23,4.0,8.0,51,0.00,,---,0.00,VWS V14.01,2013-01-26 21:03:00,
2013-01-26 15:07:00,43.8,27.8,30.28,NE,38,4.0,10.0,53,0.00,,---,0.00,VWS V14.01,2013-01-26 21:07:00,
2013-01-26 15:08:00,43.8,27.8,30.28,NE,38,4.0,10.0,53,0.00,,---,0.00,VWS V14.01,2013-01-26 21:08:00,
2013-01-26 15:09:00,44.0,28.0,30.28,North,8,4.0,10.0,53,0.00,,---,0.00,VWS V14.01,2013-01-26 21:09:00,
2013-01-26 15:12:00,44.2,27.7,30.28,ENE,58,5.0,10.0,52,0.00,,---,0.00,VWS V14.01,2013-01-26 21:12:00,
2013-01-26 15:13:00,44.1,27.1,30.28,NE,54,5.0,10.0,51,0.00,,---,0.00,VWS V14.01,2013-01-26 21:13:00,
2013-01-26 15:14:00,44.0,28.0,30.28,NNE,33,4.0,10.0,53,0.00,,---,0.00,VWS V14.01,2013-01-26 21:14:00,
2013-01-26 15:18:00,44.0,27.5,30.28,NNE,19,6.0,10.0,52,0.00,,---,0.00,VWS V14.01,2013-01-26 21:18:00,
2013-01-26 15:19:00,43.9,27.0,30.28,North,358,6.0,10.0,51,0.00,,---,0.00,VWS V14.01,2013-01-26 21:19:00,
2013-01-26 15:23:00,43.7,27.2,30.27,ENE,60,3.0,10.0,52,0.00,,---,0.00,VWS V14.01,2013-01-26 21:23:00,
2013-01-26 15:24:00,43.8,27.8,30.27,NNE,25,7.0,10.0,53,0.00,,---,0.00,VWS V14.01,2013-01-26 21:24:00,
2013-01-26 15:28:00,44.0,27.5,30.28,NE,37,5.0,7.0,52,0.00,,---,0.00,VWS V14.01,2013-01-26 21:28:00,
2013-01-26 15:29:00,43.9,27.0,30.28,NNE,25,3.0,7.0,51,0.00,,---,0.00,VWS V14.01,2013-01-26 21:29:00,
2013-01-26 15:30:00,43.9,27.0,30.28,NNE,27,7.0,10.0,51,0.00,,---,0.00,VWS V14.01,2013-01-26 21:30:00,
2013-01-26 15:33:00,44.0,27.0,30.28,NNE,32,8.0,9.0,51,0.00,,---,0.00,VWS V14.01,2013-01-26 21:33:00,
2013-01-26 15:34:00,43.9,26.5,30.28,NNW,342,3.0,9.0,50,0.00,,---,0.00,VWS V14.01,2013-01-26 21:34:00,
2013-01-26 15:38:00,43.8,26.4,30.27,NE,48,5.0,9.0,50,0.00,,---,0.00,VWS V14.01,2013-01-26 21:38:00,
2013-01-26 15:39:00,43.7,26.3,30.27,NE,52,7.0,9.0,50,0.00,,---,0.00,VWS V14.01,2013-01-26 21:39:00,
2013-01-26 15:40:00,43.7,26.3,30.27,NNE,15,3.0,9.0,50,0.00,,---,0.00,VWS V14.01,2013-01-26 21:40:00,
2013-01-26 15:43:00,43.8,25.9,30.27,NNE,25,3.0,9.0,49,0.00,,---,0.00,VWS V14.01,2013-01-26 21:43:00,
2013-01-26 15:44:00,43.8,25.9,30.27,NE,49,3.0,9.0,49,0.00,,---,0.00,VWS V14.01,2013-01-26 21:44:00,
2013-01-26 15:45:00,43.7,26.3,30.27,NE,39,8.0,9.0,50,0.00,,---,0.00,VWS V14.01,2013-01-26 21:45:00,
2013-01-26 15:48:00,44.1,27.1,30.27,North,354,4.0,9.0,51,0.00,,---,0.00,VWS V14.01,2013-01-26 21:48:00,
2013-01-26 15:49:00,44.1,27.1,30.27,NNW,342,5.0,9.0,51,0.00,,---,0.00,VWS V14.01,2013-01-26 21:49:00,
2013-01-26 15:50:00,44.1,27.1,30.27,North,11,4.0,9.0,51,0.00,,---,0.00,VWS V14.01,2013-01-26 21:50:00,
2013-01-26 15:54:00,44.2,26.8,30.27,NNW,335,5.0,9.0,50,0.00,,---,0.00,VWS V14.01,2013-01-26 21:54:00,
2013-01-26 15:55:00,44.2,26.8,30.27,NNW,343,2.0,9.0,50,0.00,,---,0.00,VWS V14.01,2013-01-26 21:55:00,
2013-01-26 15:59:00,44.2,27.2,30.27,NE,41,2.0,3.0,51,0.00,,---,0.00,VWS V14.01,2013-01-26 21:59:00,
2013-01-26 16:00:00,44.1,27.1,30.27,North,349,5.0,7.0,51,0.00,,---,0.00,VWS V14.01,2013-01-26 22:00:00,
2013-01-26 16:04:00,43.9,26.5,30.27,North,352,4.0,9.0,50,0.00,,---,0.00,VWS V14.01,2013-01-26 22:04:00,
2013-01-26 16:05:00,43.9,26.0,30.27,NNE,32,3.0,9.0,49,0.00,,---,0.00,VWS V14.01,2013-01-26 22:05:00,
2013-01-26 16:09:00,43.7,26.3,30.27,NNE,28,4.0,9.0,50,0.00,,---,0.00,VWS V14.01,2013-01-26 22:09:00,
2013-01-26 16:10:00,43.7,26.8,30.27,NNE,31,3.0,9.0,51,0.00,,---,0.00,VWS V14.01,2013-01-26 22:10:00,
2013-01-26 16:14:00,43.7,26.8,30.27,NE,38,3.0,9.0,51,0.00,,---,0.00,VWS V14.01,2013-01-26 22:14:00,
2013-01-26 16:15:00,43.6,26.7,30.27,North,9,6.0,9.0,51,0.00,,---,0.00,VWS V14.01,2013-01-26 22:15:00,
2013-01-26 16:16:00,43.6,26.7,30.27,North,3,4.0,9.0,51,0.00,,---,0.00,VWS V14.01,2013-01-26 22:16:00,
2013-01-26 16:19:00,43.5,26.6,30.27,NNE,18,5.0,9.0,51,0.00,,---,0.00,VWS V14.01,2013-01-26 22:19:00,
2013-01-26 16:21:00,43.3,26.4,30.27,NNE,26,3.0,9.0,51,0.00,,---,0.00,VWS V14.01,2013-01-26 22:21:00,
2013-01-26 16:24:00,43.1,26.7,30.27,North,1,6.0,9.0,52,0.00,,---,0.00,VWS V14.01,2013-01-26 22:24:00,
2013-01-26 16:26:00,43.1,26.7,30.27,North,5,3.0,9.0,52,0.00,,---,0.00,VWS V14.01,2013-01-26 22:26:00,
2013-01-26 16:29:00,43.1,26.7,30.27,NE,37,4.0,6.0,52,0.00,,---,0.00,VWS V14.01,2013-01-26 22:29:00,
2013-01-26 16:30:00,43.1,26.7,30.27,NE,37,3.0,6.0,52,0.00,,---,0.00,VWS V14.01,2013-01-26 22:30:00,
2013-01-26 16:31:00,43.1,26.7,30.27,NE,37,3.0,6.0,52,0.00,,---,0.00,VWS V14.01,2013-01-26 22:31:00,
2013-01-26 16:32:00,43.0,26.6,30.27,NNW,335,3.0,6.0,52,0.00,,---,0.00,VWS V14.01,2013-01-26 22:32:00,
2013-01-26 16:34:00,42.9,26.5,30.27,North,2,1.0,6.0,52,0.00,,---,0.00,VWS V14.01,2013-01-26 22:34:00,
2013-01-26 16:35:00,42.9,26.5,30.27,North,2,2.0,6.0,52,0.00,,---,0.00,VWS V14.01,2013-01-26 22:35:00,
2013-01-26 16:36:00,42.7,26.8,30.27,North,2,3.0,6.0,53,0.00,,---,0.00,VWS V14.01,2013-01-26 22:36:00,
2013-01-26 16:37:00,42.8,26.4,30.27,North,10,4.0,6.0,52,0.00,,---,0.00,VWS V14.01,2013-01-26 22:37:00,
2013-01-26 16:40:00,42.7,26.3,30.27,NNE,23,4.0,6.0,52,0.00,,---,0.00,VWS V14.01,2013-01-26 22:40:00,
2013-01-26 16:41:00,42.7,26.3,30.27,NNE,12,3.0,6.0,52,0.00,,---,0.00,VWS V14.01,2013-01-26 22:41:00,
2013-01-26 16:42:00,42.7,26.3,30.27,NNE,33,3.0,6.0,52,0.00,,---,0.00,VWS V14.01,2013-01-26 22:42:00,
2013-01-26 16:45:00,42.5,26.6,30.27,North,2,4.0,6.0,53,0.00,,---,0.00,VWS V14.01,2013-01-26 22:45:00,
2013-01-26 16:46:00,42.5,26.1,30.28,North,9,3.0,6.0,52,0.00,,---,0.00,VWS V14.01,2013-01-26 22:46:00,
2013-01-26 16:47:00,42.4,26.0,30.27,North,358,4.0,6.0,52,0.00,,---,0.00,VWS V14.01,2013-01-26 22:47:00,
2013-01-26 16:50:00,42.3,25.9,30.27,NNW,330,6.0,7.0,52,0.00,,---,0.00,VWS V14.01,2013-01-26 22:50:00,
2013-01-26 16:51:00,42.2,25.4,30.27,North,349,6.0,8.0,51,0.00,,---,0.00,VWS V14.01,2013-01-26 22:51:00,
2013-01-26 16:52:00,42.2,25.4,30.27,NNE,16,3.0,8.0,51,0.00,,---,0.00,VWS V14.01,2013-01-26 22:52:00,
2013-01-26 16:55:00,42.0,25.2,30.27,NNE,12,2.0,8.0,51,0.00,,---,0.00,VWS V14.01,2013-01-26 22:55:00,
2013-01-26 16:56:00,42.0,25.2,30.27,NNE,12,2.0,8.0,51,0.00,,---,0.00,VWS V14.01,2013-01-26 22:56:00,
2013-01-26 16:57:00,42.0,25.2,30.27,NNE,21,2.0,8.0,51,0.00,,---,0.00,VWS V14.01,2013-01-26 22:57:00,
2013-01-26 17:00:00,41.9,25.1,30.27,North,360,3.0,5.0,51,0.00,,---,0.00,VWS V14.01,2013-01-26 23:00:00,
2013-01-26 17:01:00,41.9,25.1,30.27,North,358,2.0,5.0,51,0.00,,---,0.00,VWS V14.01,2013-01-26 23:01:00,
2013-01-26 17:02:00,41.8,25.0,30.27,North,2,2.0,5.0,51,0.00,,---,0.00,VWS V14.01,2013-01-26 23:02:00,
2013-01-26 17:03:00,41.8,25.0,30.27,North,358,3.0,5.0,51,0.00,,---,0.00,VWS V14.01,2013-01-26 23:03:00,
2013-01-26 17:06:00,41.6,24.8,30.28,North,8,1.0,5.0,51,0.00,,---,0.00,VWS V14.01,2013-01-26 23:06:00,
2013-01-26 17:07:00,41.5,24.7,30.28,North,356,3.0,5.0,51,0.00,,---,0.00,VWS V14.01,2013-01-26 23:07:00,
2013-01-26 17:08:00,41.5,24.7,30.28,NNW,339,2.0,5.0,51,0.00,,---,0.00,VWS V14.01,2013-01-26 23:08:00,
2013-01-26 17:11:00,41.5,24.7,30.27,NNE,16,1.0,5.0,51,0.00,,---,0.00,VWS V14.01,2013-01-26 23:11:00,
2013-01-26 17:12:00,41.4,24.6,30.28,NNE,16,2.0,5.0,51,0.00,,---,0.00,VWS V14.01,2013-01-26 23:12:00,
2013-01-26 17:13:00,41.4,24.6,30.28,NNE,22,1.0,5.0,51,0.00,,---,0.00,VWS V14.01,2013-01-26 23:13:00,
2013-01-26 17:16:00,41.3,24.5,30.28,NNE,22,2.0,5.0,51,0.00,,---,0.00,VWS V14.01,2013-01-26 23:16:00,
2013-01-26 17:17:00,41.2,24.5,30.28,NNE,22,1.0,5.0,51,0.00,,---,0.00,VWS V14.01,2013-01-26 23:17:00,
2013-01-26 17:18:00,41.2,24.5,30.28,NNE,22,3.0,5.0,51,0.00,,---,0.00,VWS V14.01,2013-01-26 23:18:00,
2013-01-26 17:21:00,41.2,24.5,30.28,NNW,335,1.0,5.0,51,0.00,,---,0.00,VWS V14.01,2013-01-26 23:21:00,
2013-01-26 17:22:00,41.1,24.4,30.28,NNW,335,3.0,5.0,51,0.00,,---,0.00,VWS V14.01,2013-01-26 23:22:00,
2013-01-26 17:23:00,41.1,24.4,30.28,North,359,1.0,5.0,51,0.00,,---,0.00,VWS V14.01,2013-01-26 23:23:00,
2013-01-26 17:26:00,40.9,24.2,30.28,North,359,0.0,5.0,51,0.00,,---,0.00,VWS V14.01,2013-01-26 23:26:00,
2013-01-26 17:27:00,40.9,24.2,30.28,North,359,2.0,5.0,51,0.00,,---,0.00,VWS V14.01,2013-01-26 23:27:00,
2013-01-26 17:28:00,40.8,24.1,30.28,North,359,1.0,2.0,51,0.00,,---,0.00,VWS V14.01,2013-01-26 23:28:00,
2013-01-26 17:30:00,40.9,24.2,30.28,North,359,1.0,5.0,51,0.00,,---,0.00,VWS V14.01,2013-01-26 23:30:00,
2013-01-26 17:31:00,40.8,24.1,30.28,North,359,1.0,2.0,51,0.00,,---,0.00,VWS V14.01,2013-01-26 23:31:00,
2013-01-26 17:32:00,40.8,24.1,30.28,North,359,1.0,2.0,51,0.00,,---,0.00,VWS V14.01,2013-01-26 23:32:00,
2013-01-26 17:33:00,40.7,24.0,30.28,North,359,0.0,2.0,51,0.00,,---,0.00,VWS V14.01,2013-01-26 23:33:00,
2013-01-26 17:37:00,40.5,24.3,30.28,North,359,0.0,2.0,52,0.00,,---,0.00,VWS V14.01,2013-01-26 23:37:00,
2013-01-26 17:39:00,40.3,24.1,30.28,North,359,0.0,2.0,52,0.00,,---,0.00,VWS V14.01,2013-01-26 23:39:00,
2013-01-26 17:42:00,40.2,24.0,30.29,North,359,0.0,2.0,52,0.00,,---,0.00,VWS V14.01,2013-01-26 23:42:00,
2013-01-26 17:44:00,40.1,23.9,30.29,North,359,0.0,2.0,52,0.00,,---,0.00,VWS V14.01,2013-01-26 23:44:00,
2013-01-26 17:47:00,40.0,23.8,30.29,North,359,0.0,2.0,52,0.00,,---,0.00,VWS V14.01,2013-01-26 23:47:00,
2013-01-26 17:48:00,40.0,23.8,30.29,North,359,0.0,2.0,52,0.00,,---,0.00,VWS V14.01,2013-01-26 23:48:00,
2013-01-26 17:49:00,39.8,23.6,30.29,North,359,0.0,2.0,52,0.00,,---,0.00,VWS V14.01,2013-01-26 23:49:00,
2013-01-26 17:52:00,39.4,23.7,30.29,North,359,0.0,2.0,53,0.00,,---,0.00,VWS V14.01,2013-01-26 23:52:00,
2013-01-26 17:53:00,39.3,24.1,30.29,North,359,0.0,2.0,54,0.00,,---,0.00,VWS V14.01,2013-01-26 23:53:00,
2013-01-26 17:54:00,39.1,23.9,30.29,North,359,0.0,2.0,54,0.00,,---,0.00,VWS V14.01,2013-01-26 23:54:00,
2013-01-26 17:57:00,38.8,23.6,30.29,North,359,0.0,2.0,54,0.00,,---,0.00,VWS V14.01,2013-01-26 23:57:00,
2013-01-26 17:58:00,38.7,23.5,30.29,North,359,0.0,2.0,54,0.00,,---,0.00,VWS V14.01,2013-01-26 23:58:00,
2013-01-26 17:59:00,38.6,23.8,30.29,North,359,0.0,0.0,55,0.00,,---,0.00,VWS V14.01,2013-01-26 23:59:00,
2013-01-26 18:00:00,38.7,23.5,30.29,North,359,0.0,2.0,54,0.00,,---,0.00,VWS V14.01,2013-01-27 00:00:00,
2013-01-26 18:02:00,38.5,23.8,30.30,North,359,0.0,0.0,55,0.00,,---,0.00,VWS V14.01,2013-01-27 00:02:00,
2013-01-26 18:03:00,38.5,23.8,30.30,North,359,0.0,0.0,55,0.00,,---,0.00,VWS V14.01,2013-01-27 00:03:00,
2013-01-26 18:05:00,38.5,23.8,30.30,North,359,0.0,0.0,55,0.00,,---,0.00,VWS V14.01,2013-01-27 00:05:00,
2013-01-26 18:07:00,38.1,23.8,30.30,North,359,0.0,0.0,56,0.00,,---,0.00,VWS V14.01,2013-01-27 00:07:00,
2013-01-26 18:08:00,37.8,24.0,30.30,North,359,0.0,0.0,57,0.00,,---,0.00,VWS V14.01,2013-01-27 00:08:00,
2013-01-26 18:10:00,37.4,23.6,30.30,North,359,0.0,0.0,57,0.00,,---,0.00,VWS V14.01,2013-01-27 00:10:00,
2013-01-26 18:12:00,37.1,23.7,30.30,North,359,0.0,0.0,58,0.00,,---,0.00,VWS V14.01,2013-01-27 00:12:00,
2013-01-26 18:13:00,36.8,24.2,30.30,North,359,0.0,0.0,60,0.00,,---,0.00,VWS V14.01,2013-01-27 00:13:00,
2013-01-26 18:15:00,36.6,24.0,30.30,North,359,1.0,2.0,60,0.00,,---,0.00,VWS V14.01,2013-01-27 00:15:00,
2013-01-26 18:17:00,36.5,24.0,30.31,North,359,0.0,2.0,60,0.00,,---,0.00,VWS V14.01,2013-01-27 00:17:00,
2013-01-26 18:19:00,36.4,23.9,30.30,North,359,0.0,2.0,60,0.00,,---,0.00,VWS V14.01,2013-01-27 00:19:00,
2013-01-26 18:20:00,36.4,23.5,30.31,North,359,0.0,2.0,59,0.00,,---,0.00,VWS V14.01,2013-01-27 00:20:00,
2013-01-26 18:22:00,36.4,23.5,30.31,North,359,0.0,2.0,59,0.00,,---,0.00,VWS V14.01,2013-01-27 00:22:00,
2013-01-26 18:24:00,36.3,23.4,30.31,North,359,0.0,2.0,59,0.00,,---,0.00,VWS V14.01,2013-01-27 00:24:00,
2013-01-26 18:25:00,36.2,23.7,30.31,North,359,0.0,2.0,60,0.00,,---,0.00,VWS V14.01,2013-01-27 00:25:00,
2013-01-26 18:27:00,36.0,23.1,30.31,North,359,0.0,2.0,59,0.00,,---,0.00,VWS V14.01,2013-01-27 00:27:00,
2013-01-26 18:29:00,36.0,23.1,30.31,North,359,0.0,0.0,59,0.00,,---,0.00,VWS V14.01,2013-01-27 00:29:00,
2013-01-26 18:30:00,36.0,23.1,30.31,North,359,0.0,0.0,59,0.00,,---,0.00,VWS V14.01,2013-01-27 00:30:00,
2013-01-26 18:32:00,35.9,23.4,30.31,North,359,0.0,0.0,60,0.00,,---,0.00,VWS V14.01,2013-01-27 00:32:00,
2013-01-26 18:34:00,35.9,23.4,30.30,North,359,0.0,0.0,60,0.00,,---,0.00,VWS V14.01,2013-01-27 00:34:00,
2013-01-26 18:35:00,35.8,23.3,30.30,North,359,0.0,0.0,60,0.00,,---,0.00,VWS V14.01,2013-01-27 00:35:00,
2013-01-26 18:37:00,35.7,23.2,30.30,North,359,0.0,0.0,60,0.00,,---,0.00,VWS V14.01,2013-01-27 00:37:00,
2013-01-26 18:39:00,35.5,23.4,30.30,North,359,0.0,0.0,61,0.00,,---,0.00,VWS V14.01,2013-01-27 00:39:00,
2013-01-26 18:41:00,35.4,23.3,30.30,North,359,0.0,0.0,61,0.00,,---,0.00,VWS V14.01,2013-01-27 00:41:00,
2013-01-26 18:42:00,35.2,23.1,30.30,North,359,0.0,0.0,61,0.00,,---,0.00,VWS V14.01,2013-01-27 00:42:00,
2013-01-26 18:44:00,35.1,23.0,30.30,North,359,0.0,0.0,61,0.00,,---,0.00,VWS V14.01,2013-01-27 00:44:00,
2013-01-26 18:45:00,35.0,22.9,30.30,North,359,0.0,0.0,61,0.00,,---,0.00,VWS V14.01,2013-01-27 00:45:00,
2013-01-26 18:46:00,35.0,22.9,30.30,North,359,0.0,0.0,61,0.00,,---,0.00,VWS V14.01,2013-01-27 00:46:00,
2013-01-26 18:47:00,35.0,22.9,30.30,North,359,0.0,0.0,61,0.00,,---,0.00,VWS V14.01,2013-01-27 00:47:00,
2013-01-26 18:49:00,34.7,23.0,30.30,North,359,0.0,0.0,62,0.00,,---,0.00,VWS V14.01,2013-01-27 00:49:00,
2013-01-26 18:50:00,34.7,23.0,30.30,North,359,0.0,0.0,62,0.00,,---,0.00,VWS V14.01,2013-01-27 00:50:00,
2013-01-26 18:51:00,34.6,22.9,30.30,North,359,0.0,0.0,62,0.00,,---,0.00,VWS V14.01,2013-01-27 00:51:00,
2013-01-26 18:53:00,34.4,23.1,30.30,North,359,0.0,0.0,63,0.00,,---,0.00,VWS V14.01,2013-01-27 00:53:00,
2013-01-26 18:54:00,34.3,23.0,30.30,North,359,0.0,0.0,63,0.00,,---,0.00,VWS V14.01,2013-01-27 00:54:00,
2013-01-26 18:55:00,34.2,22.9,30.30,North,359,0.0,0.0,63,0.00,,---,0.00,VWS V14.01,2013-01-27 00:55:00,
2013-01-26 18:56:00,34.3,22.6,30.30,North,359,0.0,0.0,62,0.00,,---,0.00,VWS V14.01,2013-01-27 00:56:00,
2013-01-26 18:58:00,34.3,22.6,30.30,North,359,0.0,0.0,62,0.00,,---,0.00,VWS V14.01,2013-01-27 00:58:00,
2013-01-26 19:00:00,34.4,22.7,30.30,North,359,0.0,0.0,62,0.00,,---,0.00,VWS V14.01,2013-01-27 01:00:00,
2013-01-26 19:01:00,34.3,22.6,30.30,North,359,0.0,0.0,62,0.00,,---,0.00,VWS V14.01,2013-01-27 01:01:00,
2013-01-26 19:03:00,34.2,22.9,30.30,North,359,0.0,0.0,63,0.00,,---,0.00,VWS V14.01,2013-01-27 01:03:00,
2013-01-26 19:05:00,34.0,22.7,30.30,North,359,0.0,0.0,63,0.00,,---,0.00,VWS V14.01,2013-01-27 01:05:00,
2013-01-26 19:06:00,33.9,23.0,30.30,North,359,0.0,0.0,64,0.00,,---,0.00,VWS V14.01,2013-01-27 01:06:00,
2013-01-26 19:08:00,33.8,22.5,30.30,North,359,0.0,0.0,63,0.00,,---,0.00,VWS V14.01,2013-01-27 01:08:00,
2013-01-26 19:10:00,33.9,22.6,30.30,North,359,0.0,0.0,63,0.00,,---,0.00,VWS V14.01,2013-01-27 01:10:00,
2013-01-26 19:12:00,34.0,22.7,30.30,North,359,0.0,0.0,63,0.00,,---,0.00,VWS V14.01,2013-01-27 01:12:00,
2013-01-26 19:13:00,34.1,22.8,30.30,North,359,0.0,0.0,63,0.00,,---,0.00,VWS V14.01,2013-01-27 01:13:00,
2013-01-26 19:15:00,33.9,23.0,30.30,North,359,0.0,0.0,64,0.00,,---,0.00,VWS V14.01,2013-01-27 01:15:00,
2013-01-26 19:16:00,33.9,23.0,30.30,North,359,0.0,0.0,64,0.00,,---,0.00,VWS V14.01,2013-01-27 01:16:00,
2013-01-26 19:17:00,33.8,22.9,30.30,North,359,0.0,0.0,64,0.00,,---,0.00,VWS V14.01,2013-01-27 01:17:00,
2013-01-26 19:18:00,33.7,22.8,30.30,North,359,0.0,0.0,64,0.00,,---,0.00,VWS V14.01,2013-01-27 01:18:00,
2013-01-26 19:20:00,33.9,22.6,30.30,North,359,0.0,0.0,63,0.00,,---,0.00,VWS V14.01,2013-01-27 01:20:00,
2013-01-26 19:21:00,34.1,22.8,30.30,North,359,0.0,0.0,63,0.00,,---,0.00,VWS V14.01,2013-01-27 01:21:00,
2013-01-26 19:22:00,34.3,23.0,30.30,North,359,0.0,0.0,63,0.00,,---,0.00,VWS V14.01,2013-01-27 01:22:00,
2013-01-26 19:23:00,34.1,23.2,30.30,North,359,0.0,0.0,64,0.00,,---,0.00,VWS V14.01,2013-01-27 01:23:00,
2013-01-26 19:25:00,33.7,22.8,30.30,North,359,0.0,1.0,64,0.00,,---,0.00,VWS V14.01,2013-01-27 01:25:00,
2013-01-26 19:26:00,33.7,22.8,30.30,North,359,0.0,1.0,64,0.00,,---,0.00,VWS V14.01,2013-01-27 01:26:00,
2013-01-26 19:27:00,33.5,23.0,30.30,North,359,0.0,1.0,65,0.00,,---,0.00,VWS V14.01,2013-01-27 01:27:00,
2013-01-26 19:28:00,33.3,23.2,30.30,North,359,1.0,2.0,66,0.00,,---,0.00,VWS V14.01,2013-01-27 01:28:00,
2013-01-26 19:30:00,33.5,23.0,30.30,North,359,1.0,1.0,65,0.00,,---,0.00,VWS V14.01,2013-01-27 01:30:00,
2013-01-26 19:31:00,32.8,23.8,30.30,North,359,1.0,2.0,69,0.00,,---,0.00,VWS V14.01,2013-01-27 01:31:00,
2013-01-26 19:32:00,32.4,23.4,30.30,North,359,1.0,2.0,69,0.00,,---,0.00,VWS V14.01,2013-01-27 01:32:00,
2013-01-26 19:34:00,32.3,23.3,30.30,North,359,1.0,2.0,69,0.00,,---,0.00,VWS V14.01,2013-01-27 01:34:00,
2013-01-26 19:36:00,32.3,22.9,30.30,North,359,1.0,2.0,68,0.00,,---,0.00,VWS V14.01,2013-01-27 01:36:00,
2013-01-26 19:37:00,32.5,23.1,30.30,North,359,0.0,2.0,68,0.00,,---,0.00,VWS V14.01,2013-01-27 01:37:00,
2013-01-26 19:39:00,32.7,23.0,30.30,North,359,0.0,2.0,67,0.00,,---,0.00,VWS V14.01,2013-01-27 01:39:00,
2013-01-26 19:41:00,33.1,23.4,30.30,North,359,0.0,2.0,67,0.00,,---,0.00,VWS V14.01,2013-01-27 01:41:00,
2013-01-26 19:43:00,33.2,23.5,30.30,North,359,0.0,2.0,67,0.00,,---,0.00,VWS V14.01,2013-01-27 01:43:00,
2013-01-26 19:44:00,33.2,23.5,30.30,North,359,0.0,2.0,67,0.00,,---,0.00,VWS V14.01,2013-01-27 01:44:00,
2013-01-26 19:46:00,33.1,23.0,30.30,North,359,0.0,2.0,66,0.00,,---,0.00,VWS V14.01,2013-01-27 01:46:00,
2013-01-26 19:48:00,33.0,23.2,30.30,North,359,0.0,2.0,67,0.00,,---,0.00,VWS V14.01,2013-01-27 01:48:00,
2013-01-26 19:49:00,32.7,23.0,30.30,North,359,1.0,2.0,67,0.00,,---,0.00,VWS V14.01,2013-01-27 01:49:00,
2013-01-26 19:51:00,32.0,24.0,30.30,North,359,1.0,2.0,72,0.00,,---,0.00,VWS V14.01,2013-01-27 01:51:00,
2013-01-26 19:53:00,31.8,23.8,30.30,North,359,0.0,2.0,72,0.00,,---,0.00,VWS V14.01,2013-01-27 01:53:00,
2013-01-26 19:54:00,32.0,23.7,30.30,North,359,0.0,2.0,71,0.00,,---,0.00,VWS V14.01,2013-01-27 01:54:00,
2013-01-26 19:56:00,32.3,23.3,30.30,North,359,0.0,2.0,69,0.00,,---,0.00,VWS V14.01,2013-01-27 01:56:00,
2013-01-26 19:57:00,32.4,23.4,30.30,North,359,0.0,2.0,69,0.00,,---,0.00,VWS V14.01,2013-01-27 01:57:00,
2013-01-26 19:58:00,32.4,23.4,30.30,North,359,0.0,0.0,69,0.00,,---,0.00,VWS V14.01,2013-01-27 01:58:00,
2013-01-26 19:59:00,32.6,23.6,30.30,North,359,0.0,0.0,69,0.00,,---,0.00,VWS V14.01,2013-01-27 01:59:00,
2013-01-26 20:00:00,32.4,23.4,30.30,North,359,0.0,2.0,69,0.00,,---,0.00,VWS V14.01,2013-01-27 02:00:00,
2013-01-26 20:01:00,32.4,23.7,30.30,North,359,0.0,0.0,70,0.00,,---,0.00,VWS V14.01,2013-01-27 02:01:00,
2013-01-26 20:02:00,32.3,23.6,30.30,North,359,0.0,0.0,70,0.00,,---,0.00,VWS V14.01,2013-01-27 02:02:00,
2013-01-26 20:03:00,32.2,23.2,30.30,North,359,0.0,0.0,69,0.00,,---,0.00,VWS V14.01,2013-01-27 02:03:00,
2013-01-26 20:04:00,32.1,23.4,30.30,North,359,0.0,0.0,70,0.00,,---,0.00,VWS V14.01,2013-01-27 02:04:00,
2013-01-26 20:06:00,32.7,23.3,30.30,North,359,0.0,1.0,68,0.00,,---,0.00,VWS V14.01,2013-01-27 02:06:00,
2013-01-26 20:07:00,32.8,23.4,30.30,North,359,0.0,1.0,68,0.00,,---,0.00,VWS V14.01,2013-01-27 02:07:00,
2013-01-26 20:08:00,32.9,23.2,30.30,North,359,0.0,1.0,67,0.00,,---,0.00,VWS V14.01,2013-01-27 02:08:00,
2013-01-26 20:10:00,32.8,23.4,30.30,North,359,1.0,2.0,68,0.00,,---,0.00,VWS V14.01,2013-01-27 02:10:00,
2013-01-26 20:12:00,32.1,23.8,30.30,North,359,1.0,2.0,71,0.00,,---,0.00,VWS V14.01,2013-01-27 02:12:00,
2013-01-26 20:13:00,31.7,23.7,30.30,North,359,1.0,2.0,72,0.00,,---,0.00,VWS V14.01,2013-01-27 02:13:00,
2013-01-26 20:15:00,31.5,23.5,30.30,North,359,0.0,2.0,72,0.00,,---,0.00,VWS V14.01,2013-01-27 02:15:00,
2013-01-26 20:17:00,31.4,23.4,30.30,North,359,0.0,2.0,72,0.00,,---,0.00,VWS V14.01,2013-01-27 02:17:00,
2013-01-26 20:18:00,31.6,23.3,30.30,North,359,0.0,2.0,71,0.00,,---,0.00,VWS V14.01,2013-01-27 02:18:00,
2013-01-26 20:20:00,32.0,23.3,30.30,North,359,2.0,2.0,70,0.00,,---,0.00,VWS V14.01,2013-01-27 02:20:00,
2013-01-26 20:22:00,31.7,23.0,30.29,North,359,1.0,2.0,70,0.00,,---,0.00,VWS V14.01,2013-01-27 02:22:00,
2013-01-26 20:23:00,31.5,22.9,30.29,North,359,2.0,2.0,70,0.00,,---,0.00,VWS V14.01,2013-01-27 02:23:00,
2013-01-26 20:25:00,31.4,23.1,30.29,North,359,1.0,2.0,71,0.00,,---,0.00,VWS V14.01,2013-01-27 02:25:00,
2013-01-26 20:27:00,31.1,23.1,30.29,North,359,1.0,2.0,72,0.00,,---,0.00,VWS V14.01,2013-01-27 02:27:00,
2013-01-26 20:28:00,31.0,23.0,30.29,North,359,1.0,2.0,72,0.00,,---,0.00,VWS V14.01,2013-01-27 02:28:00,
2013-01-26 20:30:00,30.8,23.2,30.29,North,359,0.0,2.0,73,0.00,,---,0.00,VWS V14.01,2013-01-27 02:30:00,
2013-01-26 20:32:00,30.8,22.9,30.29,North,359,0.0,2.0,72,0.00,,---,0.00,VWS V14.01,2013-01-27 02:32:00,
2013-01-26 20:34:00,30.9,23.0,30.29,North,359,0.0,2.0,72,0.00,,---,0.00,VWS V14.01,2013-01-27 02:34:00,
2013-01-26 20:35:00,31.1,22.8,30.30,North,359,0.0,2.0,71,0.00,,---,0.00,VWS V14.01,2013-01-27 02:35:00,
2013-01-26 20:37:00,31.4,23.1,30.30,North,359,1.0,2.0,71,0.00,,---,0.00,VWS V14.01,2013-01-27 02:37:00,
2013-01-26 20:39:00,31.3,23.0,30.30,North,359,2.0,2.0,71,0.00,,---,0.00,VWS V14.01,2013-01-27 02:39:00,
2013-01-26 20:41:00,31.0,23.7,30.30,North,359,2.0,3.0,74,0.00,,---,0.00,VWS V14.01,2013-01-27 02:41:00,
2013-01-26 20:42:00,30.6,23.6,30.30,North,359,2.0,3.0,75,0.00,,---,0.00,VWS V14.01,2013-01-27 02:42:00,
2013-01-26 20:44:00,30.3,23.0,30.30,North,359,2.0,3.0,74,0.00,,---,0.00,VWS V14.01,2013-01-27 02:44:00,
2013-01-26 20:46:00,30.3,23.0,30.30,North,359,1.0,3.0,74,0.00,,---,0.00,VWS V14.01,2013-01-27 02:46:00,
2013-01-26 20:47:00,30.5,22.9,30.30,North,359,0.0,3.0,73,0.00,,---,0.00,VWS V14.01,2013-01-27 02:47:00,
2013-01-26 20:48:00,30.7,22.8,30.30,North,359,0.0,3.0,72,0.00,,---,0.00,VWS V14.01,2013-01-27 02:48:00,
2013-01-26 20:49:00,30.7,22.8,30.30,North,359,0.0,3.0,72,0.00,,---,0.00,VWS V14.01,2013-01-27 02:49:00,
2013-01-26 20:51:00,30.8,22.9,30.30,North,359,0.0,3.0,72,0.00,,---,0.00,VWS V14.01,2013-01-27 02:51:00,
2013-01-26 20:53:00,30.8,22.5,30.30,North,359,0.0,3.0,71,0.00,,---,0.00,VWS V14.01,2013-01-27 02:53:00,
2013-01-26 20:54:00,30.9,22.6,30.30,North,359,0.0,3.0,71,0.00,,---,0.00,VWS V14.01,2013-01-27 02:54:00,
2013-01-26 20:57:00,31.1,22.8,30.30,North,359,0.0,3.0,71,0.00,,---,0.00,VWS V14.01,2013-01-27 02:57:00,
2013-01-26 20:58:00,31.0,22.7,30.30,North,359,0.0,0.0,71,0.00,,---,0.00,VWS V14.01,2013-01-27 02:58:00,
2013-01-26 21:00:00,31.0,22.7,30.30,North,359,0.0,0.0,71,0.00,,---,0.00,VWS V14.01,2013-01-27 03:00:00,
2013-01-26 21:02:00,31.1,22.8,30.30,North,359,0.0,0.0,71,0.00,,---,0.00,VWS V14.01,2013-01-27 03:02:00,
2013-01-26 21:03:00,31.1,22.5,30.30,North,359,0.0,0.0,70,0.00,,---,0.00,VWS V14.01,2013-01-27 03:03:00,
2013-01-26 21:05:00,31.1,22.5,30.30,North,359,0.0,0.0,70,0.00,,---,0.00,VWS V14.01,2013-01-27 03:05:00,
2013-01-26 21:08:00,30.9,22.3,30.30,North,359,1.0,1.0,70,0.00,,---,0.00,VWS V14.01,2013-01-27 03:08:00,
2013-01-26 21:09:00,30.8,22.5,30.30,North,359,1.0,2.0,71,0.00,,---,0.00,VWS V14.01,2013-01-27 03:09:00,
2013-01-26 21:10:00,30.5,22.9,30.30,North,359,2.0,2.0,73,0.00,,---,0.00,VWS V14.01,2013-01-27 03:10:00,
2013-01-26 21:13:00,29.7,23.1,30.30,North,359,2.0,3.0,76,0.00,,---,0.00,VWS V14.01,2013-01-27 03:13:00,
2013-01-26 21:14:00,29.6,23.0,30.30,North,359,2.0,3.0,76,0.00,,---,0.00,VWS V14.01,2013-01-27 03:14:00,
2013-01-26 21:15:00,29.5,22.6,30.30,North,359,2.0,3.0,75,0.00,,---,0.00,VWS V14.01,2013-01-27 03:15:00,
2013-01-26 21:18:00,29.8,22.5,30.30,North,359,0.0,3.0,74,0.00,,---,0.00,VWS V14.01,2013-01-27 03:18:00,
2013-01-26 21:19:00,29.9,22.6,30.30,North,359,2.0,3.0,74,0.00,,---,0.00,VWS V14.01,2013-01-27 03:19:00,
2013-01-26 21:20:00,30.0,22.7,30.30,North,359,1.0,3.0,74,0.00,,---,0.00,VWS V14.01,2013-01-27 03:20:00,
2013-01-26 21:23:00,29.9,23.0,30.30,North,359,2.0,3.0,75,0.00,,---,0.00,VWS V14.01,2013-01-27 03:23:00,
2013-01-26 21:24:00,29.8,22.9,30.30,North,359,2.0,3.0,75,0.00,,---,0.00,VWS V14.01,2013-01-27 03:24:00,
2013-01-26 21:25:00,29.6,23.0,30.30,North,359,1.0,3.0,76,0.00,,---,0.00,VWS V14.01,2013-01-27 03:25:00,
2013-01-26 21:28:00,29.5,22.9,30.30,North,359,1.0,2.0,76,0.00,,---,0.00,VWS V14.01,2013-01-27 03:28:00,
2013-01-26 21:29:00,29.5,22.9,30.30,North,359,1.0,2.0,76,0.00,,---,0.00,VWS V14.01,2013-01-27 03:29:00,
2013-01-26 21:30:00,29.5,23.2,30.30,North,359,2.0,3.0,77,0.00,,---,0.00,VWS V14.01,2013-01-27 03:30:00,
2013-01-26 21:31:00,29.6,22.7,30.30,North,359,0.0,2.0,75,0.00,,---,0.00,VWS V14.01,2013-01-27 03:31:00,
2013-01-26 21:33:00,29.8,22.9,30.30,North,359,0.0,2.0,75,0.00,,---,0.00,VWS V14.01,2013-01-27 03:33:00,
2013-01-26 21:34:00,29.8,22.9,30.31,North,359,1.0,2.0,75,0.00,,---,0.00,VWS V14.01,2013-01-27 03:34:00,
2013-01-26 21:36:00,29.6,23.0,30.31,North,359,0.0,2.0,76,0.00,,---,0.00,VWS V14.01,2013-01-27 03:36:00,
2013-01-26 21:39:00,29.3,23.0,30.31,North,359,0.0,2.0,77,0.00,,---,0.00,VWS V14.01,2013-01-27 03:39:00,
2013-01-26 21:41:00,29.1,22.8,30.31,North,359,0.0,2.0,77,0.00,,---,0.00,VWS V14.01,2013-01-27 03:41:00,
2013-01-26 21:44:00,29.1,22.5,30.31,North,359,0.0,2.0,76,0.00,,---,0.00,VWS V14.01,2013-01-27 03:44:00,
2013-01-26 21:45:00,29.3,22.7,30.30,North,359,0.0,2.0,76,0.00,,---,0.00,VWS V14.01,2013-01-27 03:45:00,
2013-01-26 21:46:00,29.4,22.5,30.30,North,359,0.0,2.0,75,0.00,,---,0.00,VWS V14.01,2013-01-27 03:46:00,
2013-01-26 21:49:00,29.5,22.2,30.30,North,359,0.0,2.0,74,0.00,,---,0.00,VWS V14.01,2013-01-27 03:49:00,
2013-01-26 21:50:00,29.5,22.2,30.30,North,359,1.0,2.0,74,0.00,,---,0.00,VWS V14.01,2013-01-27 03:50:00,
2013-01-26 21:52:00,29.5,22.2,30.30,North,359,0.0,2.0,74,0.00,,---,0.00,VWS V14.01,2013-01-27 03:52:00,
2013-01-26 21:54:00,29.7,22.1,30.30,North,359,0.0,2.0,73,0.00,,---,0.00,VWS V14.01,2013-01-27 03:54:00,
2013-01-26 21:55:00,29.8,22.2,30.30,North,359,0.0,2.0,73,0.00,,---,0.00,VWS V14.01,2013-01-27 03:55:00,
2013-01-26 21:57:00,29.8,22.5,30.30,North,359,0.0,2.0,74,0.00,,---,0.00,VWS V14.01,2013-01-27 03:57:00,
2013-01-26 21:59:00,29.8,22.5,30.31,North,359,0.0,0.0,74,0.00,,---,0.00,VWS V14.01,2013-01-27 03:59:00,
2013-01-26 22:00:00,29.7,22.4,30.30,North,359,2.0,2.0,74,0.00,,---,0.00,VWS V14.01,2013-01-27 04:00:00,
2013-01-26 22:02:00,29.4,22.5,30.31,North,359,2.0,2.0,75,0.00,,---,0.00,VWS V14.01,2013-01-27 04:02:00,
2013-01-26 22:05:00,29.1,23.1,30.31,North,359,2.0,3.0,78,0.00,,---,0.00,VWS V14.01,2013-01-27 04:05:00,
2013-01-26 22:07:00,28.7,23.0,30.30,North,359,1.0,3.0,79,0.00,,---,0.00,VWS V14.01,2013-01-27 04:07:00,
2013-01-26 22:10:00,28.7,22.4,30.31,North,359,2.0,3.0,77,0.00,,---,0.00,VWS V14.01,2013-01-27 04:10:00,
2013-01-26 22:11:00,28.8,22.5,30.31,North,359,1.0,3.0,77,0.00,,---,0.00,VWS V14.01,2013-01-27 04:11:00,
2013-01-26 22:12:00,29.0,22.4,30.30,North,359,1.0,3.0,76,0.00,,---,0.00,VWS V14.01,2013-01-27 04:12:00,
2013-01-26 22:15:00,29.2,22.3,30.31,North,359,0.0,3.0,75,0.00,,---,0.00,VWS V14.01,2013-01-27 04:15:00,
2013-01-26 22:16:00,29.2,22.3,30.31,North,359,0.0,3.0,75,0.00,,---,0.00,VWS V14.01,2013-01-27 04:16:00,
2013-01-26 22:18:00,29.3,22.4,30.31,North,359,2.0,3.0,75,0.00,,---,0.00,VWS V14.01,2013-01-27 04:18:00,
2013-01-26 22:20:00,29.2,22.3,30.31,North,359,2.0,3.0,75,0.00,,---,0.00,VWS V14.01,2013-01-27 04:20:00,
2013-01-26 22:21:00,29.2,22.3,30.31,North,359,1.0,3.0,75,0.00,,---,0.00,VWS V14.01,2013-01-27 04:21:00,
2013-01-26 22:23:00,29.3,22.1,30.31,North,359,1.0,3.0,74,0.00,,---,0.00,VWS V14.01,2013-01-27 04:23:00,
2013-01-26 22:25:00,29.4,21.8,30.31,North,359,1.0,3.0,73,0.00,,---,0.00,VWS V14.01,2013-01-27 04:25:00,
2013-01-26 22:26:00,29.5,21.9,30.31,North,359,0.0,3.0,73,0.00,,---,0.00,VWS V14.01,2013-01-27 04:26:00,
2013-01-26 22:28:00,29.7,21.8,30.31,North,359,0.0,3.0,72,0.00,,---,0.00,VWS V14.01,2013-01-27 04:28:00,
2013-01-26 22:30:00,29.5,21.9,30.31,North,359,0.0,0.0,73,0.00,,---,0.00,VWS V14.01,2013-01-27 04:30:00,
2013-01-26 22:31:00,29.5,21.9,30.31,North,359,0.0,0.0,73,0.00,,---,0.00,VWS V14.01,2013-01-27 04:31:00,
2013-01-26 22:33:00,29.6,22.0,30.30,North,359,0.0,0.0,73,0.00,,---,0.00,VWS V14.01,2013-01-27 04:33:00,
2013-01-26 22:35:00,29.6,22.0,30.30,North,359,2.0,2.0,73,0.00,,---,0.00,VWS V14.01,2013-01-27 04:35:00,
2013-01-26 22:36:00,29.6,22.0,30.30,North,359,2.0,2.0,73,0.00,,---,0.00,VWS V14.01,2013-01-27 04:36:00,
2013-01-26 22:37:00,29.6,22.0,30.30,North,359,2.0,2.0,73,0.00,,---,0.00,VWS V14.01,2013-01-27 04:37:00,
2013-01-26 22:38:00,29.6,22.0,30.30,North,359,1.0,2.0,73,0.00,,---,0.00,VWS V14.01,2013-01-27 04:38:00,
2013-01-26 22:41:00,29.7,22.1,30.30,North,359,1.0,2.0,73,0.00,,---,0.00,VWS V14.01,2013-01-27 04:41:00,
2013-01-26 22:42:00,29.9,22.0,30.30,North,359,0.0,2.0,72,0.00,,---,0.00,VWS V14.01,2013-01-27 04:42:00,
2013-01-26 22:43:00,30.3,22.0,30.30,North,359,0.0,2.0,71,0.00,,---,0.00,VWS V14.01,2013-01-27 04:43:00,
2013-01-26 22:46:00,30.2,21.9,30.30,North,359,0.0,2.0,71,0.00,,---,0.00,VWS V14.01,2013-01-27 04:46:00,
2013-01-26 22:47:00,29.9,21.7,30.30,North,359,0.0,2.0,71,0.00,,---,0.00,VWS V14.01,2013-01-27 04:47:00,
2013-01-26 22:48:00,29.7,21.8,30.30,North,359,0.0,2.0,72,0.00,,---,0.00,VWS V14.01,2013-01-27 04:48:00,
2013-01-26 22:51:00,29.6,21.7,30.30,North,359,0.0,2.0,72,0.00,,---,0.00,VWS V14.01,2013-01-27 04:51:00,
2013-01-26 22:52:00,29.5,21.9,30.29,North,359,0.0,2.0,73,0.00,,---,0.00,VWS V14.01,2013-01-27 04:52:00,
2013-01-26 22:53:00,29.3,21.7,30.30,North,359,0.0,2.0,73,0.00,,---,0.00,VWS V14.01,2013-01-27 04:53:00,
2013-01-26 22:56:00,28.8,21.9,30.30,North,359,0.0,2.0,75,0.00,,---,0.00,VWS V14.01,2013-01-27 04:56:00,
2013-01-26 22:57:00,28.7,21.8,30.29,North,359,0.0,2.0,75,0.00,,---,0.00,VWS V14.01,2013-01-27 04:57:00,
2013-01-26 22:58:00,28.8,22.2,30.29,North,359,0.0,0.0,76,0.00,,---,0.00,VWS V14.01,2013-01-27 04:58:00,
2013-01-26 23:00:00,28.8,21.9,30.29,North,359,0.0,0.0,75,0.00,,---,0.00,VWS V14.01,2013-01-27 05:00:00,
2013-01-26 23:01:00,28.8,22.2,30.29,North,359,0.0,0.0,76,0.00,,---,0.00,VWS V14.01,2013-01-27 05:01:00,
2013-01-26 23:05:00,28.8,22.2,30.30,North,359,0.0,0.0,76,0.00,,---,0.00,VWS V14.01,2013-01-27 05:05:00,
2013-01-26 23:06:00,28.8,22.2,30.30,North,359,0.0,0.0,76,0.00,,---,0.00,VWS V14.01,2013-01-27 05:06:00,
2013-01-26 23:08:00,28.7,22.4,30.30,North,359,2.0,3.0,77,0.00,,---,0.00,VWS V14.01,2013-01-27 05:08:00,
2013-01-26 23:10:00,28.6,22.6,30.30,SW,232,3.0,3.0,78,0.00,,---,0.00,VWS V14.01,2013-01-27 05:10:00,
2013-01-26 23:11:00,28.7,22.4,30.30,SW,232,1.0,3.0,77,0.00,,---,0.00,VWS V14.01,2013-01-27 05:11:00,
2013-01-26 23:13:00,28.8,22.2,30.30,SW,232,1.0,3.0,76,0.00,,---,0.00,VWS V14.01,2013-01-27 05:13:00,
2013-01-26 23:15:00,28.6,22.0,30.30,SW,232,0.0,3.0,76,0.00,,---,0.00,VWS V14.01,2013-01-27 05:15:00,
2013-01-26 23:16:00,28.6,22.0,30.30,SW,232,0.0,3.0,76,0.00,,---,0.00,VWS V14.01,2013-01-27 05:16:00,
2013-01-26 23:18:00,28.9,22.0,30.30,SW,232,0.0,3.0,75,0.00,,---,0.00,VWS V14.01,2013-01-27 05:18:00,
2013-01-26 23:20:00,28.5,21.6,30.30,SW,232,2.0,3.0,75,0.00,,---,0.00,VWS V14.01,2013-01-27 05:20:00,
2013-01-26 23:21:00,28.5,21.6,30.30,SW,232,2.0,3.0,75,0.00,,---,0.00,VWS V14.01,2013-01-27 05:21:00,
2013-01-26 23:22:00,28.4,21.5,30.30,SW,232,1.0,3.0,75,0.00,,---,0.00,VWS V14.01,2013-01-27 05:22:00,
2013-01-26 23:23:00,28.1,21.8,30.30,SW,232,3.0,3.0,77,0.00,,---,0.00,VWS V14.01,2013-01-27 05:23:00,
2013-01-26 23:25:00,28.0,22.0,30.30,SW,232,2.0,3.0,78,0.00,,---,0.00,VWS V14.01,2013-01-27 05:25:00,
2013-01-26 23:26:00,28.1,22.1,30.30,SW,232,1.0,3.0,78,0.00,,---,0.00,VWS V14.01,2013-01-27 05:26:00,
2013-01-26 23:27:00,28.3,22.0,30.30,SW,232,0.0,3.0,77,0.00,,---,0.00,VWS V14.01,2013-01-27 05:27:00,
2013-01-26 23:29:00,28.8,22.2,30.30,SW,232,0.0,0.0,76,0.00,,---,0.00,VWS V14.01,2013-01-27 05:29:00,
2013-01-26 23:30:00,28.4,22.1,30.30,SW,232,0.0,3.0,77,0.00,,---,0.00,VWS V14.01,2013-01-27 05:30:00,
2013-01-26 23:31:00,29.0,21.8,30.30,SW,232,0.0,0.0,74,0.00,,---,0.00,VWS V14.01,2013-01-27 05:31:00,
2013-01-26 23:32:00,29.2,22.0,30.30,SW,232,0.0,0.0,74,0.00,,---,0.00,VWS V14.01,2013-01-27 05:32:00,
2013-01-26 23:34:00,29.1,21.5,30.30,SW,232,0.0,0.0,73,0.00,,---,0.00,VWS V14.01,2013-01-27 05:34:00,
2013-01-26 23:36:00,29.0,21.4,30.29,SW,232,0.0,0.0,73,0.00,,---,0.00,VWS V14.01,2013-01-27 05:36:00,
2013-01-26 23:37:00,28.9,21.4,30.30,SW,232,0.0,0.0,73,0.00,,---,0.00,VWS V14.01,2013-01-27 05:37:00,
2013-01-26 23:39:00,28.8,21.6,30.29,SW,232,0.0,0.0,74,0.00,,---,0.00,VWS V14.01,2013-01-27 05:39:00,
2013-01-26 23:41:00,28.9,21.7,30.29,SW,232,0.0,0.0,74,0.00,,---,0.00,VWS V14.01,2013-01-27 05:41:00,
2013-01-26 23:42:00,29.0,21.8,30.29,SW,232,0.0,0.0,74,0.00,,---,0.00,VWS V14.01,2013-01-27 05:42:00,
2013-01-26 23:44:00,29.2,21.6,30.29,SW,232,1.0,2.0,73,0.00,,---,0.00,VWS V14.01,2013-01-27 05:44:00,
2013-01-26 23:46:00,29.2,21.6,30.29,SW,232,0.0,2.0,73,0.00,,---,0.00,VWS V14.01,2013-01-27 05:46:00,
2013-01-26 23:48:00,29.2,21.6,30.29,SW,232,0.0,2.0,73,0.00,,---,0.00,VWS V14.01,2013-01-27 05:48:00,
2013-01-26 23:49:00,29.4,21.8,30.29,SW,232,0.0,2.0,73,0.00,,---,0.00,VWS V14.01,2013-01-27 05:49:00,
2013-01-26 23:51:00,29.7,21.8,30.29,SW,232,1.0,3.0,72,0.00,,---,0.00,VWS V14.01,2013-01-27 05:51:00,
2013-01-26 23:52:00,29.7,21.8,30.29,SW,232,1.0,3.0,72,0.00,,---,0.00,VWS V14.01,2013-01-27 05:52:00,
2013-01-26 23:54:00,29.1,21.2,30.29,SW,232,1.0,3.0,72,0.00,,---,0.00,VWS V14.01,2013-01-27 05:54:00,
2013-01-26 23:56:00,28.5,21.9,30.29,SW,232,1.0,3.0,76,0.00,,---,0.00,VWS V14.01,2013-01-27 05:56:00,
2013-01-26 23:57:00,28.5,21.9,30.29,SW,232,1.0,3.0,76,0.00,,---,0.00,VWS V14.01,2013-01-27 05:57:00,
2013-01-26 23:59:00,28.5,22.2,30.30,SW,232,2.0,3.0,77,0.00,,---,0.00,VWS V14.01,2013-01-27 05:59:00,